Another Hard Day at the Office Weather Stats

 
 
 

High monthly outside Temperature, 22.8 , C
Low monthly outside Temperature, -1.0 , C
High yearly outside Temperature, 30.9 , C
Low yearly outside Temperature, -2.2 , C

Low monthly barometer, 1001.1 , mb
High monthly barometer, 1028.0 , mb
Low yearly barometer, 975.0 , mb
High yearly barometer 1041.1 , mb

High wind speed, 25.0 , mph
Time of High wind speed, 21:37 , mph
High monthly wind speed, 47.0 , mph
High yearly wind speed, 55.0 , mph

 

 




3126
                    Temp     Hi    Low   Out    Dew  Wind  Wind   Wind    Hi    Hi   Wind   Heat    THW                Rain    Heat    Cool    In     In    In     In     In   In Air  Wind  Wind    ISS   Arc.
  Date    Time     Out   Temp   Temp   Hum    Pt. Speed   Dir    Run Speed   Dir  Chill  Index  Index   Bar    Rain  Rate    D-D     D-D    Temp   Hum    Dew   Heat    EMC Density  Samp   Tx   Recept  Int.
---------------------------------------------------------------------------------------------------------------------------------------------------------------------------------------------------------------
11/11/18   0:05   10.1   10.1    9.9    86    7.9  15.0    SW   1.25  20.0   WSW    6.3   10.2    6.4   994.7  0.01  0.31   0.029   0.000   22.9    50   11.9   22.6   9.25  .0721    115    1    100.0    5 
11/11/18   0:10   10.4   10.4   10.1    86    8.1  18.0    SW   1.50  23.0   SSW    6.2   10.4    6.2   994.6  0.00  0.06   0.028   0.000   22.9    50   11.9   22.6   9.25  .0721    115    1    100.0    5 
11/11/18   0:15   10.2   10.3   10.1    86    7.9  14.0   SSW   1.17  20.0   SSW    6.6   10.2    6.7   994.5  0.00  0.04   0.028   0.000   22.9    50   11.9   22.6   9.25  .0721    116    1    100.0    5 
11/11/18   0:20   10.4   10.4   10.2    85    8.0  13.0   SSW   1.08  17.0   SSW    7.1   10.4    7.1   994.4  0.00  0.00   0.028   0.000   22.9    50   11.9   22.6   9.25  .0721    116    1    100.0    5 
11/11/18   0:25   10.9   10.9   10.4    85    8.5  14.0   SSW   1.17  18.0   SSW    7.5   10.9    7.5   994.7  0.00  0.00   0.026   0.000   22.8    50   11.9   22.6   9.25  .0721    115    1    100.0    5 
11/11/18   0:30   11.1   11.1   10.9    85    8.6  13.0    SW   1.08  17.0    SW    7.8   11.1    7.8   994.6  0.04  0.58   0.025   0.000   22.8    50   11.9   22.6   9.25  .0721    117    1    100.0    5 
11/11/18   0:35   11.1   11.1   11.0    85    8.6  10.0    SW   0.83  13.0    SW    8.6   11.1    8.6   994.7  0.01  0.48   0.025   0.000   22.8    50   11.9   22.6   9.25  .0721    117    1    100.0    5 
11/11/18   0:40   11.2   11.2   11.1    86    8.9  10.0    SW   0.83  14.0    SW    8.7   11.2    8.7   994.7  0.01  0.14   0.025   0.000   22.8    50   11.9   22.6   9.25  .0721    116    1    100.0    5 
11/11/18   0:45   11.3   11.3   11.2    86    9.1  11.0    SW   0.92  16.0   SSW    8.6   11.3    8.6   994.6  0.01  0.09   0.024   0.000   22.8    50   11.9   22.6   9.25  .0721    117    1    100.0    5 
11/11/18   0:50   10.9   11.3   10.9    86    8.7  10.0   SSW   0.83  15.0   SSW    8.5   10.9    8.5   994.6  0.03  0.47   0.026   0.000   22.8    50   11.9   22.6   9.25  .0721    117    1    100.0    5 
11/11/18   0:55   10.9   10.9   10.9    86    8.7   8.0   SSW   0.67  11.0   SSW    9.2   10.9    9.2   994.7  0.02  0.52   0.026   0.000   22.8    50   11.9   22.6   9.25  .0721    117    1    100.0    5 
11/11/18   1:00   10.9   11.0   10.9    86    8.7   6.0   SSW   0.50   9.0    SW    9.8   10.9    9.8   994.6  0.02  0.27   0.026   0.000   22.8    50   11.9   22.6   9.25  .0721    117    1    100.0    5 
11/11/18   1:05   10.8   10.9   10.8    86    8.5   8.0    SW   0.67  15.0    SW    9.0   10.8    9.0   994.6  0.01  0.46   0.026   0.000   22.8    50   11.9   22.6   9.25  .0721    117    1    100.0    5 
11/11/18   1:10   10.7   10.8   10.7    86    8.4   7.0    SW   0.58  12.0    SW    9.2   10.7    9.2   994.5  0.00  0.06   0.027   0.000   22.8    50   11.9   22.6   9.25  .0721    116    1    100.0    5 
11/11/18   1:15   10.7   10.7   10.7    86    8.4   5.0     W   0.42  10.0     W    9.8   10.7    9.8   994.5  0.00  0.04   0.027   0.000   22.8    50   11.9   22.6   9.25  .0721    116    1    100.0    5 
11/11/18   1:20   10.7   10.7   10.7    86    8.5   4.0     W   0.33   7.0     W   10.2   10.7   10.2   994.5  0.00  0.00   0.026   0.000   22.8    50   11.8   22.5   9.25  .0721    116    1    100.0    5 
11/11/18   1:25   11.0   11.0   10.7    86    8.7  10.0    SW   0.83  20.0    SW    8.6   11.0    8.6   994.5  0.00  0.00   0.025   0.000   22.8    50   11.8   22.5   9.25  .0721    117    1    100.0    5 
11/11/18   1:30   11.8   11.8   11.1    86    9.5  21.0   SSW   1.75  27.0   SSW    7.3   11.7    7.3   994.4  0.00  0.00   0.023   0.000   22.8    50   11.8   22.5   9.25  .0721    117    1    100.0    5 
11/11/18   1:35   12.1   12.1   11.8    86    9.8  20.0   SSW   1.67  25.0   SSW    7.9   12.1    7.8   994.5  0.00  0.00   0.022   0.000   22.7    50   11.8   22.4   9.25  .0721    117    1    100.0    5 
11/11/18   1:40   12.3   12.3   12.1    85    9.8  19.0   SSW   1.58  25.0   SSW    8.2   12.2    8.1   994.5  0.00  0.00   0.021   0.000   22.7    50   11.8   22.4   9.25  .0721    117    1    100.0    5 
11/11/18   1:45   12.3   12.3   12.3    85    9.9  20.0   SSW   1.67  25.0   SSW    8.1   12.3    8.1   994.5  0.00  0.00   0.021   0.000   22.7    50   11.8   22.4   9.25  .0721    116    1    100.0    5 
11/11/18   1:50   12.4   12.4   12.3    84    9.8  20.0   SSW   1.67  24.0   SSW    8.2   12.4    8.2   994.5  0.00  0.00   0.020   0.000   22.7    50   11.7   22.3   9.25  .0721    117    1    100.0    5 
11/11/18   1:55   12.4   12.4   12.4    84    9.8  20.0   SSW   1.67  24.0   SSW    8.2   12.4    8.2   994.6  0.00  0.00   0.020   0.000   22.7    50   11.7   22.3   9.25  .0721    118    1    100.0    5 
11/11/18   2:00   12.5   12.6   12.4    84    9.9  18.0   SSW   1.50  23.0   SSW    8.6   12.4    8.6   994.5  0.00  0.00   0.020   0.000   22.6    50   11.7   22.3   9.25  .0722    116    1    100.0    5 
11/11/18   2:05   12.5   12.6   12.5    84    9.9  19.0   SSW   1.58  24.0   SSW    8.4   12.4    8.4   994.5  0.00  0.00   0.020   0.000   22.6    50   11.7   22.3   9.25  .0722    116    1    100.0    5 
11/11/18   2:10   12.4   12.5   12.4    84    9.8  19.0   SSW   1.58  26.0     S    8.3   12.4    8.3   994.6  0.00  0.00   0.020   0.000   22.6    50   11.7   22.3   9.25  .0722    117    1    100.0    5 
11/11/18   2:15   12.3   12.4   12.3    84    9.7  19.0   SSW   1.58  25.0   SSW    8.2   12.3    8.2   994.5  0.00  0.00   0.021   0.000   22.6    50   11.7   22.3   9.25  .0722    117    1    100.0    5 
11/11/18   2:20   12.3   12.4   12.3    84    9.7  20.0   SSW   1.67  27.0   SSW    8.1   12.3    8.1   994.5  0.00  0.00   0.021   0.000   22.6    50   11.6   22.2   9.25  .0722    116    1    100.0    5 
11/11/18   2:25   12.3   12.3   12.3    83    9.5  21.0   SSW   1.75  28.0   SSW    7.9   12.2    7.8   994.6  0.00  0.00   0.021   0.000   22.6    50   11.6   22.2   9.25  .0722    116    1    100.0    5 
11/11/18   2:30   12.3   12.3   12.3    83    9.5  19.0   SSW   1.58  24.0   SSW    8.2   12.2    8.1   994.5  0.00  0.00   0.021   0.000   22.5    50   11.6   22.1   9.25  .0722    115    1    100.0    5 
11/11/18   2:35   12.3   12.3   12.3    83    9.5  18.0   SSW   1.50  24.0   SSW    8.4   12.2    8.3   994.5  0.00  0.00   0.021   0.000   22.5    50   11.6   22.1   9.25  .0722    117    1    100.0    5 
11/11/18   2:40   12.3   12.3   12.3    83    9.5  18.0   SSW   1.50  24.0   SSW    8.4   12.2    8.3   994.5  0.00  0.00   0.021   0.000   22.5    50   11.6   22.1   9.25  .0722    116    1    100.0    5 
11/11/18   2:45   12.3   12.4   12.3    83    9.5  19.0   SSW   1.58  24.0     S    8.2   12.2    8.1   994.5  0.00  0.00   0.021   0.000   22.5    50   11.6   22.1   9.25  .0722    116    1    100.0    5 
11/11/18   2:50   12.4   12.4   12.3    83    9.6  19.0   SSW   1.58  24.0    SW    8.3   12.3    8.2   994.5  0.00  0.00   0.021   0.000   22.4    50   11.5   22.1   9.25  .0722    115    1    100.0    5 
11/11/18   2:55   12.4   12.4   12.4    84    9.8  17.0   SSW   1.42  25.0   SSW    8.7   12.4    8.6   994.5  0.00  0.00   0.020   0.000   22.4    50   11.5   22.1   9.25  .0722    117    1    100.0    5 
11/11/18   3:00   12.4   12.4   12.4    83    9.6  19.0   SSW   1.58  25.0     S    8.3   12.3    8.2   994.3  0.00  0.00   0.020   0.000   22.4    50   11.5   21.9   9.25  .0722    117    1    100.0    5 
11/11/18   3:05   12.4   12.4   12.4    83    9.6  19.0   SSW   1.58  24.0   SSW    8.3   12.3    8.2   994.3  0.00  0.00   0.021   0.000   22.4    50   11.5   21.9   9.25  .0722    116    1    100.0    5 
11/11/18   3:10   12.4   12.4   12.3    84    9.8  19.0   SSW   1.58  25.0   SSW    8.3   12.3    8.2   994.2  0.00  0.00   0.021   0.000   22.4    50   11.5   21.9   9.25  .0722    115    1    100.0    5 
11/11/18   3:15   12.4   12.4   12.4    83    9.6  19.0   SSW   1.58  25.0   SSW    8.3   12.3    8.2   994.1  0.00  0.00   0.020   0.000   22.3    50   11.4   21.9   9.25  .0722    115    1    100.0    5 
11/11/18   3:20   12.6   12.6   12.4    84   10.0  18.0   SSW   1.50  23.0   SSW    8.7   12.6    8.7   994.1  0.00  0.00   0.020   0.000   22.3    50   11.4   21.9   9.25  .0722    117    1    100.0    5 
11/11/18   3:25   12.6   12.6   12.6    84    9.9  20.0   SSW   1.67  26.0     S    8.4   12.5    8.3   994.1  0.00  0.00   0.020   0.000   22.3    50   11.4   21.9   9.25  .0722    117    1    100.0    5 
11/11/18   3:30   12.6   12.6   12.5    84    9.9  19.0   SSW   1.58  23.0   SSW    8.5   12.5    8.4   994.0  0.00  0.00   0.020   0.000   22.3    50   11.4   21.8   9.25  .0722    117    1    100.0    5 
11/11/18   3:35   12.6   12.6   12.5    84    9.9  19.0   SSW   1.58  25.0   SSW    8.5   12.5    8.4   993.9  0.00  0.00   0.020   0.000   22.3    50   11.4   21.8   9.25  .0722    115    1    100.0    5 
11/11/18   3:40   12.6   12.6   12.6    84    9.9  19.0   SSW   1.58  26.0     S    8.5   12.5    8.4   993.9  0.00  0.00   0.020   0.000   22.3    50   11.4   21.8   9.25  .0722    115    1    100.0    5 
11/11/18   3:45   12.5   12.6   12.5    84    9.9  19.0   SSW   1.58  25.0   SSW    8.4   12.4    8.4   993.8  0.00  0.00   0.020   0.000   22.2    50   11.3   21.7   9.25  .0722    116    1    100.0    5 
11/11/18   3:50   12.6   12.6   12.5    84    9.9  19.0   SSW   1.58  26.0     S    8.5   12.5    8.4   993.9  0.00  0.00   0.020   0.000   22.2    50   11.3   21.7   9.25  .0722    116    1    100.0    5 
11/11/18   3:55   12.6   12.6   12.6    84   10.0  20.0     S   1.67  25.0   SSW    8.4   12.6    8.4   993.8  0.00  0.00   0.020   0.000   22.3    50   11.4   21.8   9.25  .0722    116    1    100.0    5 
11/11/18   4:00   12.6   12.7   12.6    84    9.9  21.0   SSW   1.75  30.0   SSW    8.3   12.5    8.2   993.8  0.00  0.00   0.020   0.000   22.3    50   11.4   21.9   9.25  .0722    118    1    100.0    5 
11/11/18   4:05   12.5   12.6   12.5    84    9.9  22.0     S   1.83  26.0     S    8.1   12.4    8.1   993.8  0.00  0.00   0.020   0.000   22.3    50   11.4   21.9   9.25  .0722    117    1    100.0    5 
11/11/18   4:10   12.4   12.5   12.4    84    9.8  22.0     S   1.83  27.0     S    8.0   12.4    7.9   993.8  0.00  0.00   0.020   0.000   22.3    50   11.4   21.8   9.25  .0722    117    1    100.0    5 
11/11/18   4:15   12.6   12.6   12.4    84    9.9  19.0     S   1.58  25.0     S    8.5   12.5    8.4   993.8  0.00  0.00   0.020   0.000   22.3    50   11.4   21.8   9.25  .0722    116    1    100.0    5 
11/11/18   4:20   12.6   12.6   12.6    84    9.9  21.0     S   1.75  26.0     S    8.3   12.5    8.2   993.9  0.00  0.00   0.020   0.000   22.2    50   11.3   21.7   9.25  .0722    116    1    100.0    5 
11/11/18   4:25   12.7   12.7   12.6    84   10.0  21.0     S   1.75  26.0     S    8.4   12.6    8.3   993.9  0.00  0.00   0.020   0.000   22.2    50   11.2   21.6   9.25  .0722    116    1    100.0    5 
11/11/18   4:30   12.6   12.7   12.6    84   10.0  21.0     S   1.75  27.0   SSW    8.3   12.6    8.3   993.9  0.00  0.00   0.020   0.000   22.1    50   11.2   21.6   9.25  .0723    116    1    100.0    5 
11/11/18   4:35   12.7   12.7   12.6    84   10.0  25.0     S   2.08  32.0     S    7.9   12.6    7.9   993.8  0.00  0.00   0.020   0.000   22.1    50   11.2   21.6   9.25  .0723    117    1    100.0    5 
11/11/18   4:40   12.7   12.7   12.7    84   10.0  24.0     S   2.00  33.0   SSW    8.1   12.6    8.0   993.9  0.00  0.00   0.020   0.000   22.1    50   11.1   21.4   9.25  .0723    117    1    100.0    5 
11/11/18   4:45   12.6   12.7   12.6    84    9.9  23.0   SSW   1.92  33.0     S    8.1   12.5    8.0   994.0  0.00  0.00   0.020   0.000   22.1    50   11.1   21.4   9.25  .0723    115    1    100.0    5 
11/11/18   4:50   12.3   12.6   12.3    84    9.7  26.0   SSW   2.17  32.0     S    7.4   12.3    7.4   993.9  0.00  0.00   0.021   0.000   22.0    50   11.1   21.4   9.25  .0723    116    1    100.0    5 
11/11/18   4:55   12.4   12.4   12.3    84    9.8  25.0   SSW   2.08  33.0   SSW    7.6   12.3    7.6   993.8  0.01  0.00   0.021   0.000   22.0    50   11.1   21.4   9.25  .0723    117    1    100.0    5 
11/11/18   5:00   12.5   12.5   12.4    84    9.9  23.0   SSW   1.92  28.0   SSW    7.9   12.4    7.9   994.0  0.00  0.00   0.020   0.000   22.0    50   11.1   21.4   9.25  .0723    116    1    100.0    5 
11/11/18   5:05   12.5   12.5   12.5    83    9.7  24.0   SSW   2.00  31.0   SSW    7.9   12.4    7.8   993.9  0.00  0.00   0.020   0.000   21.9    50   11.0   21.3   9.25  .0723    118    1    100.0    5 
11/11/18   5:10   12.4   12.5   12.4    83    9.6  22.0   SSW   1.83  28.0   SSW    7.9   12.3    7.8   993.9  0.00  0.00   0.021   0.000   22.0    50   11.1   21.4   9.25  .0723    116    1    100.0    5 
11/11/18   5:15   12.4   12.4   12.4    83    9.6  23.0   SSW   1.92  30.0     S    7.9   12.3    7.8   993.8  0.00  0.00   0.020   0.000   21.9    50   11.0   21.3   9.25  .0723    116    1    100.0    5 
11/11/18   5:20   12.5   12.5   12.4    83    9.7  24.0   SSW   2.00  32.0   SSW    7.9   12.4    7.8   993.8  0.00  0.00   0.020   0.000   21.9    50   11.0   21.3   9.25  .0723    116    1    100.0    5 
11/11/18   5:25   12.5   12.5   12.4    82    9.5  26.0     S   2.17  33.0     S    7.7   12.4    7.6   993.7  0.00  0.00   0.020   0.000   21.9    50   11.0   21.2   9.25  .0723    114    1    100.0    5 
11/11/18   5:30   12.4   12.5   12.4    82    9.5  24.0   SSW   2.00  31.0   SSW    7.8   12.3    7.7   993.8  0.00  0.00   0.020   0.000   21.8    50   10.9   21.2   9.25  .0723    114    1    100.0    5 
11/11/18   5:35   12.5   12.5   12.4    82    9.5  23.0   SSW   1.92  30.0   SSW    7.9   12.4    7.8   993.8  0.00  0.00   0.020   0.000   21.8    50   10.9   21.2   9.25  .0723    116    1    100.0    5 
11/11/18   5:40   12.5   12.5   12.5    83    9.7  26.0   SSW   2.17  35.0     S    7.7   12.4    7.6   993.8  0.00  0.00   0.020   0.000   21.8    50   10.9   21.1   9.25  .0724    115    1    100.0    5 
11/11/18   5:45   12.4   12.5   12.4    83    9.6  25.0   SSW   2.08  38.0   SSW    7.7   12.3    7.6   993.9  0.00  0.00   0.020   0.000   21.8    51   11.2   21.2   9.42  .0723    117    1    100.0    5 
11/11/18   5:50   12.4   12.4   12.3    83    9.6  25.0   SSW   2.08  34.0    SW    7.6   12.3    7.5   993.9  0.00  0.00   0.021   0.000   21.8    51   11.2   21.1   9.43  .0723    117    1    100.0    5 
11/11/18   5:55   12.4   12.4   12.3    83    9.6  24.0   SSW   2.00  32.0   SSW    7.8   12.3    7.7   993.8  0.00  0.00   0.020   0.000   21.8    51   11.2   21.1   9.43  .0723    117    1    100.0    5 
11/11/18   6:00   12.5   12.5   12.4    82    9.5  26.0   SSW   2.17  34.0   SSW    7.7   12.4    7.6   993.9  0.00  0.00   0.020   0.000   21.8    51   11.2   21.2   9.42  .0723    116    1    100.0    5 
11/11/18   6:05   12.6   12.7   12.5    82    9.6  28.0   SSW   2.33  33.0   SSW    7.6   12.5    7.5   994.0  0.00  0.00   0.020   0.000   21.8    51   11.2   21.1   9.43  .0724    118    1    100.0    5 
11/11/18   6:10   12.7   12.7   12.7    82    9.7  24.0   SSW   2.00  30.0   SSW    8.1   12.6    7.9   993.8  0.00  0.00   0.020   0.000   21.8    51   11.2   21.1   9.43  .0723    117    1    100.0    5 
11/11/18   6:15   12.6   12.7   12.6    82    9.6  25.0   SSW   2.08  30.0   SSW    7.8   12.4    7.7   994.0  0.00  0.00   0.020   0.000   21.8    51   11.2   21.1   9.43  .0724    116    1    100.0    5 
11/11/18   6:20   12.6   12.6   12.6    82    9.6  25.0   SSW   2.08  30.0   SSW    7.8   12.4    7.7   994.0  0.00  0.00   0.020   0.000   21.8    51   11.2   21.1   9.43  .0724    115    1    100.0    5 
11/11/18   6:25   12.6   12.6   12.6    82    9.6  23.0   SSW   1.92  30.0   SSW    8.1   12.5    8.0   994.1  0.00  0.00   0.020   0.000   21.8    51   11.2   21.1   9.43  .0724    116    1    100.0    5 
11/11/18   6:30   12.6   12.6   12.6    82    9.6  23.0   SSW   1.92  28.0   SSW    8.1   12.5    8.0   994.1  0.00  0.00   0.020   0.000   21.8    51   11.2   21.1   9.43  .0724    117    1    100.0    5 
11/11/18   6:35   12.6   12.6   12.6    83    9.7  23.0   SSW   1.92  30.0   SSW    8.1   12.4    7.9   994.3  0.00  0.00   0.020   0.000   21.8    51   11.2   21.1   9.43  .0724    117    1    100.0    5 
11/11/18   6:40   12.6   12.6   12.6    83    9.7  22.0   SSW   1.83  28.0   SSW    8.2   12.4    8.1   994.2  0.00  0.00   0.020   0.000   21.8    51   11.2   21.1   9.43  .0724    116    1    100.0    5 
11/11/18   6:45   12.5   12.6   12.5    83    9.7  26.0   SSW   2.17  33.0   SSW    7.7   12.4    7.6   994.3  0.00  0.00   0.020   0.000   21.8    51   11.2   21.1   9.43  .0724    117    1    100.0    5 
11/11/18   6:50   12.5   12.5   12.5    84    9.9  24.0   SSW   2.00  30.0   SSW    7.9   12.4    7.8   994.5  0.00  0.00   0.020   0.000   21.8    51   11.2   21.1   9.43  .0724    117    1    100.0    5 
11/11/18   6:55   12.6   12.6   12.5    84    9.9  22.0   SSW   1.83  28.0   SSW    8.2   12.5    8.1   994.6  0.00  0.00   0.020   0.000   21.8    51   11.2   21.1   9.43  .0724    117    1    100.0    5 
11/11/18   7:00   12.4   12.6   12.4    82    9.5  22.0    SW   1.83  29.0   SSW    8.0   12.3    7.9   994.7  0.00  0.00   0.020   0.000   21.8    51   11.2   21.1   9.43  .0724    117    1    100.0    5 
11/11/18   7:05   12.7   12.7   12.4    82    9.7  23.0    SW   1.92  29.0    SW    8.2   12.6    8.1   994.9  0.00  0.00   0.020   0.000   21.8    51   11.2   21.1   9.43  .0724    116    1    100.0    5 
11/11/18   7:10   12.6   12.7   12.6    82    9.6  23.0   SSW   1.92  30.0   SSW    8.1   12.5    8.0   994.9  0.00  0.00   0.020   0.000   21.8    51   11.2   21.2   9.42  .0724    118    1    100.0    5 
11/11/18   7:15   12.7   12.7   12.6    81    9.5  23.0    SW   1.92  34.0    SW    8.2   12.5    8.0   995.0  0.00  0.00   0.020   0.000   21.8    51   11.2   21.2   9.42  .0724    116    1    100.0    5 
11/11/18   7:20   12.7   12.7   12.7    81    9.5  25.0   SSW   2.08  34.0   SSW    8.0   12.6    7.8   995.0  0.00  0.00   0.019   0.000   21.8    51   11.2   21.2   9.42  .0724    117    1    100.0    5 
11/11/18   7:25   12.8   12.8   12.8    81    9.6  23.0    SW   1.92  30.0    SW    8.3   12.6    8.1   995.0  0.00  0.00   0.019   0.000   21.8    51   11.2   21.2   9.42  .0724    117    1    100.0    5 
11/11/18   7:30   12.7   12.8   12.7    80    9.4  25.0    SW   2.08  32.0   SSW    8.0   12.6    7.8   995.2  0.00  0.00   0.019   0.000   21.9    52   11.6   21.3   9.62  .0724    117    1    100.0    5 
11/11/18   7:35   12.7   12.8   12.7    81    9.5  23.0    SW   1.92  33.0    SW    8.2   12.6    8.1   995.3  0.00  0.00   0.019   0.000   21.9    52   11.6   21.3   9.62  .0724    117    1    100.0    5 
11/11/18   7:40   12.8   12.8   12.7    81    9.6  27.0   SSW   2.25  34.0   SSW    7.9   12.6    7.7   995.4  0.00  0.00   0.019   0.000   21.9    51   11.3   21.3   9.42  .0724    117    1    100.0    5 
11/11/18   7:45   12.7   12.8   12.7    80    9.3  25.0    SW   2.08  34.0   SSW    7.9   12.5    7.8   995.6  0.00  0.00   0.020   0.000   21.9    51   11.3   21.3   9.42  .0724    117    1    100.0    5 
11/11/18   7:50   12.8   12.8   12.7    79    9.2  27.0    SW   2.25  36.0    SW    7.9   12.6    7.7   995.8  0.00  0.00   0.019   0.000   21.9    52   11.6   21.4   9.62  .0724    117    1    100.0    5 
11/11/18   7:55   12.8   12.8   12.8    78    9.0  27.0    SW   2.25  36.0    SW    7.9   12.6    7.7   995.9  0.00  0.00   0.019   0.000   21.9    52   11.6   21.4   9.62  .0724    116    1    100.0    5 
11/11/18   8:00   12.7   12.8   12.7    78    9.0  29.0    SW   2.42  34.0    SW    7.7   12.5    7.4   996.2  0.00  0.00   0.019   0.000   22.0    52   11.7   21.5   9.62  .0724    115    1    100.0    5 
11/11/18   8:05   12.8   12.8   12.7    79    9.2  27.0    SW   2.25  34.0    SW    7.9   12.6    7.7   996.2  0.00  0.00   0.019   0.000   22.0    52   11.7   21.5   9.62  .0724    117    1    100.0    5 
11/11/18   8:10   12.7   12.8   12.7    76    8.5  28.0    SW   2.33  34.0    SW    7.7   12.4    7.4   996.4  0.00  0.00   0.020   0.000   22.0    52   11.7   21.5   9.62  .0724    117    1    100.0    5 
11/11/18   8:15   12.6   12.7   12.6    75    8.3  28.0    SW   2.33  35.0    SW    7.6   12.3    7.3   996.5  0.00  0.00   0.020   0.000   22.1    52   11.7   21.6   9.62  .0724    118    1    100.0    5 
11/11/18   8:20   12.6   12.6   12.6    75    8.3  27.0    SW   2.25  33.0    SW    7.7   12.3    7.4   996.7  0.00  0.00   0.020   0.000   22.1    52   11.7   21.6   9.62  .0724    117    1    100.0    5 
11/11/18   8:25   12.6   12.6   12.6    75    8.2  26.0    SW   2.17  32.0    SW    7.7   12.3    7.4   996.8  0.00  0.00   0.020   0.000   22.1    51   11.5   21.6   9.41  .0725    117    1    100.0    5 
11/11/18   8:30   12.6   12.6   12.5    77    8.6  23.0    SW   1.92  31.0   WSW    8.1   12.3    7.8   996.8  0.00  0.00   0.020   0.000   22.1    51   11.5   21.6   9.41  .0725    117    1    100.0    5 
11/11/18   8:35   12.5   12.5   12.5    78    8.8  23.0    SW   1.92  30.0    SW    7.9   12.3    7.7   997.0  0.00  0.00   0.020   0.000   22.1    51   11.5   21.6   9.41  .0725    115    1    100.0    5 
11/11/18   8:40   12.6   12.6   12.4    77    8.6  25.0    SW   2.08  32.0    SW    7.8   12.3    7.6   997.1  0.00  0.00   0.020   0.000   22.2    51   11.5   21.7   9.41  .0725    116    1    100.0    5 
11/11/18   8:45   12.6   12.6   12.6    76    8.5  25.0    SW   2.08  30.0    SW    7.9   12.3    7.6   997.1  0.00  0.00   0.020   0.000   22.2    51   11.5   21.7   9.41  .0725    117    1    100.0    5 
11/11/18   8:50   12.7   12.7   12.6    77    8.7  24.0    SW   2.00  30.0    SW    8.1   12.4    7.8   997.2  0.00  0.00   0.020   0.000   22.2    51   11.5   21.7   9.41  .0725    116    1    100.0    5 
11/11/18   8:55   12.7   12.7   12.6    77    8.7  24.0    SW   2.00  34.0    SW    8.1   12.4    7.8   997.2  0.00  0.00   0.020   0.000   22.2    51   11.6   21.8   9.41  .0725    117    1    100.0    5 
11/11/18   9:00   12.8   12.8   12.7    76    8.7  24.0    SW   2.00  30.0    SW    8.2   12.5    7.9   997.2  0.00  0.00   0.019   0.000   22.2    51   11.6   21.8   9.41  .0725    117    1    100.0    5 
11/11/18   9:05   12.8   12.8   12.8    78    9.0  22.0    SW   1.83  25.0    SW    8.4   12.6    8.2   997.3  0.00  0.00   0.019   0.000   22.2    51   11.6   21.8   9.41  .0725    115    1    100.0    5 
11/11/18   9:10   12.7   12.8   12.7    78    8.9  24.0    SW   2.00  34.0    SW    8.1   12.4    7.8   997.6  0.00  0.00   0.020   0.000   22.2    51   11.6   21.8   9.41  .0725    116    1    100.0    5 
11/11/18   9:15   11.9   12.7   11.9    81    8.8  23.0   WSW   1.92  33.0    SW    7.3   11.8    7.2   997.7  0.00  0.00   0.022   0.000   22.2    51   11.6   21.8   9.41  .0725    117    1    100.0    5 
11/11/18   9:20   11.9   11.9   11.8    82    8.9  21.0    SW   1.75  27.0   WSW    7.5   11.8    7.4   997.8  0.00  0.00   0.022   0.000   22.2    51   11.6   21.8   9.41  .0725    118    1    100.0    5 
11/11/18   9:25   12.2   12.2   11.9    81    9.0  21.0    SW   1.75  28.0    SW    7.8   12.0    7.7   997.9  0.00  0.00   0.021   0.000   22.3    51   11.7   21.8   9.41  .0725    116    1    100.0    5 
11/11/18   9:30   12.3   12.3   12.2    81    9.2  21.0    SW   1.75  28.0    SW    8.0   12.2    7.8   998.0  0.00  0.00   0.021   0.000   22.3    51   11.7   21.8   9.41  .0725    117    1    100.0    5 
11/11/18   9:35   12.4   12.4   12.3    80    9.0  20.0    SW   1.67  25.0    SW    8.2   12.2    8.0   998.0  0.00  0.00   0.021   0.000   22.3    51   11.7   21.8   9.41  .0725    117    1    100.0    5 
11/11/18   9:40   12.6   12.6   12.4    79    9.0  23.0    SW   1.92  31.0    SW    8.1   12.4    7.9   998.0  0.00  0.00   0.020   0.000   22.3    51   11.7   21.8   9.41  .0725    117    1    100.0    5 
11/11/18   9:45   12.8   12.8   12.6    77    8.9  26.0    SW   2.17  32.0    SW    8.1   12.6    7.8   998.1  0.00  0.00   0.019   0.000   22.3    51   11.7   21.8   9.41  .0725    117    1    100.0    5 
11/11/18   9:50   12.8   12.9   12.8    77    8.8  24.0    SW   2.00  28.0    SW    8.2   12.6    7.9   998.2  0.00  0.00   0.019   0.000   22.3    51   11.7   21.8   9.41  .0725    115    1    100.0    5 
11/11/18   9:55   12.8   12.8   12.7    77    8.8  23.0    SW   1.92  28.0   WSW    8.3   12.6    8.1   998.1  0.00  0.00   0.019   0.000   22.2    51   11.6   21.8   9.41  .0725    117    1    100.0    5 
11/11/18  10:00   12.7   12.8   12.7    78    9.0  21.0    SW   1.75  28.0    SW    8.4   12.5    8.2   998.2  0.00  0.00   0.019   0.000   22.3    51   11.7   21.8   9.41  .0725    117    1    100.0    5 
11/11/18  10:05   12.8   12.8   12.7    78    9.0  20.0    SW   1.67  25.0    SW    8.6   12.6    8.4   998.3  0.00  0.00   0.019   0.000   22.3    51   11.7   21.8   9.41  .0725    115    1    100.0    5 
11/11/18  10:10   12.8   12.8   12.7    78    9.0  21.0    SW   1.75  26.0    SW    8.5   12.6    8.3   998.4  0.00  0.00   0.019   0.000   22.3    51   11.7   21.8   9.41  .0725    115    1    100.0    5 
11/11/18  10:15   12.8   12.8   12.8    78    9.1  23.0    SW   1.92  30.0    SW    8.3   12.6    8.1   998.5  0.00  0.00   0.019   0.000   22.3    51   11.7   21.8   9.41  .0725    116    1    100.0    5 
11/11/18  10:20   12.9   12.9   12.8    78    9.1  23.0    SW   1.92  28.0    SW    8.4   12.7    8.2   998.6  0.00  0.00   0.019   0.000   22.3    51   11.7   21.8   9.41  .0725    117    1    100.0    5 
11/11/18  10:25   13.1   13.1   12.9    77    9.1  23.0    SW   1.92  32.0    SW    8.6   12.8    8.4   998.8  0.00  0.00   0.018   0.000   22.3    51   11.7   21.8   9.41  .0726    115    1    100.0    5 
11/11/18  10:30   13.2   13.2   13.0    77    9.2  25.0    SW   2.08  32.0    SW    8.5   12.9    8.2   998.8  0.00  0.00   0.018   0.000   22.3    51   11.7   21.9   9.41  .0725    117    1    100.0    5 
11/11/18  10:35   13.1   13.2   13.1    75    8.7  25.0    SW   2.08  30.0    SW    8.4   12.8    8.1   999.0  0.00  0.00   0.018   0.000   22.3    51   11.7   21.9   9.41  .0726    117    1    100.0    5 
11/11/18  10:40   13.2   13.2   13.1    75    8.9  25.0   WSW   2.08  31.0    SW    8.6   12.9    8.3   999.0  0.00  0.00   0.018   0.000   22.4    51   11.8   22.0   9.40  .0725    115    1    100.0    5 
11/11/18  10:45   13.3   13.3   13.2    77    9.3  20.0    SW   1.67  28.0   WSW    9.2   13.0    8.9   999.1  0.00  0.00   0.018   0.000   22.4    51   11.8   22.0   9.40  .0725    116    1    100.0    5 
11/11/18  10:50   13.1   13.3   13.1    77    9.2  19.0    SW   1.58  26.0    SW    9.1   12.8    8.8   999.1  0.00  0.00   0.018   0.000   22.4    51   11.8   22.1   9.40  .0725    116    1    100.0    5 
11/11/18  10:55   13.1   13.2   13.1    77    9.2  20.0    SW   1.67  26.0    SW    9.0   12.8    8.7   999.1  0.00  0.00   0.018   0.000   22.5    51   11.9   22.2   9.40  .0725    116    1    100.0    5 
11/11/18  11:00   13.1   13.1   13.1    77    9.1  21.0   WSW   1.75  26.0    SW    8.8   12.8    8.6   999.2  0.00  0.00   0.018   0.000   22.5    51   11.9   22.2   9.40  .0725    117    1    100.0    5 
11/11/18  11:05   12.9   13.1   12.9    77    9.0  20.0    SW   1.67  24.0   WSW    8.8   12.7    8.6   999.2  0.00  0.00   0.019   0.000   22.6    51   11.9   22.2   9.40  .0725    116    1    100.0    5 
11/11/18  11:10   12.9   13.0   12.9    75    8.6  21.0    SW   1.75  27.0    SW    8.7   12.7    8.4   999.3  0.00  0.00   0.019   0.000   22.6    51   12.0   22.3   9.40  .0725    117    1    100.0    5 
11/11/18  11:15   13.1   13.1   13.0    76    9.0  19.0    SW   1.58  26.0   WSW    9.1   12.8    8.8   999.4  0.00  0.00   0.018   0.000   22.7    51   12.0   22.4   9.39  .0725    117    1    100.0    5 
11/11/18  11:20   13.2   13.2   13.1    76    9.1  21.0    SW   1.75  25.0    SW    9.0   12.9    8.7   999.4  0.00  0.00   0.018   0.000   22.7    51   12.1   22.5   9.39  .0725    116    1    100.0    5 
11/11/18  11:25   13.2   13.2   13.2    75    8.8  21.0    SW   1.75  25.0    SW    8.9   12.8    8.6   999.4  0.00  0.00   0.018   0.000   22.7    51   12.1   22.5   9.39  .0725    118    1    100.0    5 
11/11/18  11:30   13.2   13.2   13.1    75    8.9  21.0    SW   1.75  25.0    SW    9.0   12.9    8.7   999.5  0.00  0.00   0.018   0.000   22.7    51   12.1   22.5   9.39  .0725    115    1    100.0    5 
11/11/18  11:35   13.2   13.3   13.2    76    9.1  19.0    SW   1.58  27.0   WSW    9.3   12.9    9.0   999.6  0.00  0.00   0.018   0.000   22.8    51   12.1   22.6   9.39  .0725    117    1    100.0    5 
11/11/18  11:40   13.3   13.3   13.2    75    8.9  20.0    SW   1.67  26.0   WSW    9.2   12.9    8.8   999.6  0.00  0.00   0.018   0.000   22.8    51   12.2   22.6   9.39  .0724    115    1    100.0    5 
11/11/18  11:45   13.3   13.3   13.3    74    8.7  20.0    SW   1.67  25.0   WSW    9.2   12.9    8.8   999.7  0.00  0.00   0.018   0.000   22.9    51   12.2   22.7   9.39  .0724    117    1    100.0    5 
11/11/18  11:50   13.3   13.3   13.3    76    9.2  19.0    SW   1.58  23.0    SW    9.4   13.1    9.1   999.7  0.00  0.00   0.017   0.000   22.9    51   12.2   22.7   9.39  .0724    116    1    100.0    5 
11/11/18  11:55   13.3   13.3   13.3    75    8.9  20.0    SW   1.67  24.0    SW    9.2   12.9    8.8   999.8  0.00  0.00   0.018   0.000   22.9    51   12.3   22.8   9.38  .0724    114    1    100.0    5 
11/11/18  12:00   13.2   13.2   13.1    75    8.8  21.0    SW   1.75  26.0    SW    8.9   12.8    8.6   999.8  0.00  0.00   0.018   0.000   23.0    51   12.3   22.8   9.38  .0724    116    1    100.0    5 
11/11/18  12:05   13.2   13.2   13.2    75    8.9  19.0    SW   1.58  25.0    SW    9.3   12.9    8.9   999.8  0.00  0.00   0.018   0.000   23.0    50   12.0   22.8   9.25  .0724    116    1    100.0    5 
11/11/18  12:10   13.2   13.3   13.2    75    8.9  20.0    SW   1.67  23.0    SW    9.1   12.9    8.8   999.7  0.00  0.00   0.018   0.000   23.1    50   12.1   22.8   9.25  .0724    115    1    100.0    5 
11/11/18  12:15   13.2   13.2   13.2    75    8.9  19.0    SW   1.58  23.0    SW    9.3   12.9    8.9   999.8  0.00  0.00   0.018   0.000   23.1    50   12.1   22.9   9.25  .0724    117    1    100.0    5 
11/11/18  12:20   13.2   13.2   13.2    75    8.9  19.0    SW   1.58  24.0    SW    9.3   12.9    8.9   999.7  0.00  0.00   0.018   0.000   23.1    50   12.1   22.9   9.25  .0724    117    1    100.0    5 
11/11/18  12:25   13.2   13.3   13.2    74    8.7  18.0    SW   1.50  21.0    SW    9.4   12.9    9.1   999.7  0.00  0.00   0.018   0.000   23.1    50   12.1   22.9   9.25  .0724    114    1    100.0    5 
11/11/18  12:30   13.1   13.2   13.1    75    8.8  17.0    SW   1.42  21.0    SW    9.4   12.8    9.1   999.7  0.00  0.00   0.018   0.000   23.2    50   12.2   22.9   9.25  .0724    117    1    100.0    5 
11/11/18  12:35   13.1   13.1   13.1    75    8.8  18.0    SW   1.50  22.0    SW    9.3   12.8    8.9   999.8  0.00  0.00   0.018   0.000   23.2    50   12.2   23.1   9.25  .0724    117    1    100.0    5 
11/11/18  12:40   13.2   13.2   13.1    75    8.9  18.0    SW   1.50  22.0    SW    9.4   12.9    9.1   999.9  0.00  0.00   0.018   0.000   23.2    50   12.2   23.1   9.25  .0724    117    1    100.0    5 
11/11/18  12:45   13.2   13.3   13.2    75    8.9  17.0    SW   1.42  20.0    SW    9.6   12.9    9.2  1000.0  0.00  0.00   0.018   0.000   23.3    50   12.3   23.1   9.25  .0724    116    1    100.0    5 
11/11/18  12:50   13.1   13.2   13.1    75    8.8  17.0    SW   1.42  21.0    SW    9.4   12.8    9.1  1000.0  0.00  0.00   0.018   0.000   23.3    50   12.3   23.1   9.25  .0724    116    1    100.0    5 
11/11/18  12:55   13.2   13.2   13.1    75    8.8  15.0    SW   1.25  20.0    SW    9.8   12.8    9.5  1000.1  0.00  0.00   0.018   0.000   23.3    50   12.3   23.1   9.25  .0724    117    1    100.0    5 
11/11/18  13:00   13.1   13.2   13.1    75    8.8  15.0    SW   1.25  20.0    SW    9.8   12.8    9.4  1000.1  0.00  0.00   0.018   0.000   23.3    49   12.0   23.1   9.05  .0724    117    1    100.0    5 
11/11/18  13:05   13.2   13.2   13.1    76    9.0  15.0    SW   1.25  21.0    SW    9.8   12.9    9.6  1000.2  0.00  0.00   0.018   0.000   23.3    49   12.0   23.1   9.05  .0724    117    1    100.0    5 
11/11/18  13:10   13.3   13.3   13.2    75    8.9  17.0    SW   1.42  20.0    SW    9.6   12.9    9.3  1000.1  0.00  0.00   0.018   0.000   23.3    49   12.0   23.1   9.05  .0724    116    1    100.0    5 
11/11/18  13:15   13.3   13.4   13.3    75    9.0  16.0    SW   1.33  19.0    SW    9.8   13.0    9.5  1000.2  0.00  0.00   0.017   0.000   23.3    49   12.0   23.1   9.05  .0724    116    1    100.0    5 
11/11/18  13:20   13.3   13.3   13.3    75    9.0  16.0    SW   1.33  20.0    SW    9.8   13.0    9.5  1000.3  0.00  0.00   0.017   0.000   23.4    49   12.1   23.2   9.05  .0724    117    1    100.0    5 
11/11/18  13:25   13.3   13.3   13.3    74    8.8  17.0    SW   1.42  22.0    SW    9.7   13.0    9.3  1000.4  0.00  0.00   0.017   0.000   23.4    49   12.1   23.2   9.05  .0724    117    1    100.0    5 
11/11/18  13:30   13.3   13.3   13.3    74    8.8  18.0    SW   1.50  24.0    SW    9.5   13.0    9.2  1000.4  0.00  0.00   0.017   0.000   23.4    49   12.1   23.3   9.05  .0724    115    1    100.0    5 
11/11/18  13:35   13.4   13.4   13.3    75    9.0  16.0    SW   1.33  22.0    SW    9.9   13.1    9.6  1000.5  0.00  0.00   0.017   0.000   23.4    49   12.1   23.3   9.05  .0724    116    1    100.0    5 
11/11/18  13:40   13.3   13.4   13.3    74    8.8  18.0    SW   1.50  22.0    SW    9.5   13.0    9.2  1000.6  0.00  0.00   0.017   0.000   23.4    49   12.1   23.3   9.05  .0724    116    1    100.0    5 
11/11/18  13:45   13.3   13.3   13.3    75    8.9  18.0    SW   1.50  22.0    SW    9.4   12.9    9.1  1000.7  0.00  0.00   0.018   0.000   23.5    49   12.2   23.4   9.05  .0724    117    1    100.0    5 
11/11/18  13:50   13.3   13.3   13.2    75    8.9  18.0    SW   1.50  23.0    SW    9.4   12.9    9.1  1000.7  0.00  0.00   0.018   0.000   23.5    49   12.2   23.4   9.05  .0724    117    1    100.0    5 
11/11/18  13:55   13.3   13.3   13.2    74    8.7  18.0    SW   1.50  24.0    SW    9.4   12.9    9.1  1000.7  0.00  0.00   0.018   0.000   23.6    49   12.2   23.4   9.05  .0723    117    1    100.0    5 
11/11/18  14:00   13.3   13.3   13.3    75    8.9  18.0    SW   1.50  22.0    SW    9.4   12.9    9.1  1000.9  0.00  0.00   0.018   0.000   23.6    49   12.2   23.4   9.05  .0724    117    1    100.0    5 
11/11/18  14:05   13.3   13.3   13.3    75    8.9  18.0    SW   1.50  23.0    SW    9.4   12.9    9.1  1000.9  0.00  0.00   0.018   0.000   23.6    49   12.2   23.4   9.05  .0724    117    1    100.0    5 
11/11/18  14:10   13.3   13.3   13.3    75    8.9  18.0    SW   1.50  21.0    SW    9.4   12.9    9.1  1000.9  0.00  0.00   0.018   0.000   23.6    49   12.2   23.4   9.05  .0724    117    1    100.0    5 
11/11/18  14:15   13.3   13.3   13.3    76    9.1  18.0    SW   1.50  23.0    SW    9.4   13.0    9.2  1000.9  0.00  0.00   0.018   0.000   23.6    49   12.3   23.5   9.05  .0723    117    1    100.0    5 
11/11/18  14:20   13.3   13.3   13.3    76    9.1  17.0    SW   1.42  21.0    SW    9.6   13.0    9.3  1000.9  0.00  0.00   0.018   0.000   23.6    49   12.3   23.5   9.05  .0723    116    1    100.0    5 
11/11/18  14:25   13.3   13.3   13.2    76    9.1  16.0    SW   1.33  21.0    SW    9.8   13.0    9.5  1001.0  0.00  0.00   0.018   0.000   23.7    49   12.3   23.6   9.05  .0723    115    1    100.0    5 
11/11/18  14:30   13.3   13.3   13.3    77    9.4  16.0    SW   1.33  19.0    SW    9.8   13.1    9.6  1001.1  0.00  0.00   0.017   0.000   23.7    49   12.3   23.6   9.05  .0723    117    1    100.0    5 
11/11/18  14:35   13.3   13.4   13.3    78    9.6  17.0    SW   1.42  21.0    SW    9.7   13.1    9.4  1001.1  0.00  0.00   0.017   0.000   23.7    49   12.4   23.7   9.05  .0723    118    1    100.0    5 
11/11/18  14:40   13.3   13.4   13.3    78    9.5  16.0    SW   1.33  22.0    SW    9.8   13.1    9.6  1001.2  0.00  0.00   0.018   0.000   23.7    49   12.4   23.7   9.05  .0723    117    1    100.0    5 
11/11/18  14:45   13.3   13.3   13.3    77    9.3  17.0    SW   1.42  21.0   SSW    9.6   13.0    9.3  1001.1  0.00  0.00   0.018   0.000   23.8    49   12.4   23.7   9.05  .0723    116    1    100.0    5 
11/11/18  14:50   13.2   13.3   13.2    76    9.1  19.0    SW   1.58  22.0    SW    9.3   12.9    9.0  1001.3  0.00  0.00   0.018   0.000   23.8    49   12.4   23.7   9.05  .0723    117    1    100.0    5 
11/11/18  14:55   13.2   13.3   13.2    77    9.3  17.0    SW   1.42  22.0    SW    9.6   12.9    9.3  1001.3  0.00  0.00   0.018   0.000   23.8    49   12.4   23.7   9.05  .0723    116    1    100.0    5 
11/11/18  15:00   13.1   13.2   13.1    77    9.1  16.0    SW   1.33  20.0    SW    9.6   12.8    9.3  1001.2  0.00  0.00   0.018   0.000   23.8    49   12.5   23.8   9.05  .0723    114    1    100.0    5 
11/11/18  15:05   13.1   13.1   13.1    78    9.3  14.0    SW   1.17  18.0    SW    9.9   12.8    9.7  1001.3  0.00  0.00   0.018   0.000   23.8    49   12.5   23.8   9.05  .0723    117    1    100.0    5 
11/11/18  15:10   13.0   13.1   13.0    79    9.4  13.0    SW   1.08  16.0    SW   10.0   12.8    9.8  1001.5  0.00  0.00   0.019   0.000   23.9    49   12.5   23.9   9.05  .0723    116    1    100.0    5 
11/11/18  15:15   13.0   13.1   13.0    80    9.6  12.0    SW   1.00  17.0    SW   10.3   12.8   10.1  1001.5  0.00  0.00   0.019   0.000   23.9    49   12.5   23.9   9.05  .0723    116    1    100.0    5 
11/11/18  15:20   12.9   13.0   12.9    79    9.3  14.0    SW   1.17  23.0    SW    9.7   12.7    9.5  1001.4  0.00  0.00   0.019   0.000   23.9    49   12.5   23.9   9.05  .0723    117    1    100.0    5 
11/11/18  15:25   12.7   12.9   12.7    79    9.1   8.0   WSW   0.67  11.0   WSW   11.3   12.5   11.1  1001.6  0.00  0.00   0.020   0.000   23.9    49   12.5   23.9   9.05  .0723    117    1    100.0    5 
11/11/18  15:30   12.4   12.7   12.4    80    9.1  11.0   WSW   0.92  26.0   WSW    9.9   12.3    9.8  1001.8  0.00  0.00   0.020   0.000   23.9    49   12.5   23.9   9.05  .0723    117    1    100.0    5 
11/11/18  15:35   11.5   12.4   11.5    79    8.0  14.0   WSW   1.17  20.0   WNW    8.1   11.3    7.9  1001.8  0.01  0.00   0.024   0.000   23.8    49   12.5   23.8   9.05  .0723    116    1    100.0    5 
11/11/18  15:40   11.2   11.4   11.1    80    7.9  15.0    SW   1.25  20.0   WSW    7.6   11.1    7.5  1002.0  0.00  0.00   0.025   0.000   23.8    49   12.5   23.8   9.05  .0724    118    1    100.0    5 
11/11/18  15:45   11.5   11.5   11.2    81    8.4  14.0    SW   1.17  17.0    SW    8.1   11.4    8.0  1001.9  0.00  0.00   0.024   0.000   23.8    49   12.5   23.8   9.05  .0723    117    1    100.0    5 
11/11/18  15:50   11.7   11.7   11.4    81    8.5  13.0    SW   1.08  16.0    SW    8.5   11.5    8.3  1002.1  0.00  0.00   0.023   0.000   23.8    49   12.5   23.8   9.05  .0724    117    1    100.0    5 
11/11/18  15:55   11.7   11.7   11.7    81    8.5  10.0    SW   0.83  13.0    SW    9.3   11.5    9.2  1002.0  0.00  0.00   0.023   0.000   23.8    49   12.5   23.8   9.05  .0724    116    1    100.0    5 
11/11/18  16:00   11.8   11.8   11.7    80    8.5  13.0    SW   1.08  16.0    SW    8.7   11.7    8.5  1002.2  0.00  0.00   0.023   0.000   23.8    49   12.5   23.8   9.05  .0724    116    1    100.0    5 
11/11/18  16:05   12.0   12.0   11.8    81    8.8  13.0    SW   1.08  17.0    SW    8.9   11.8    8.7  1002.2  0.00  0.00   0.022   0.000   23.8    49   12.5   23.8   9.05  .0724    117    1    100.0    5 
11/11/18  16:10   12.0   12.0   12.0    82    9.0  11.0    SW   0.92  16.0    SW    9.4   11.9    9.3  1002.1  0.00  0.00   0.022   0.000   23.8    49   12.5   23.8   9.05  .0724    115    1    100.0    5 
11/11/18  16:15   11.9   12.0   11.9    82    9.0  11.0    SW   0.92  15.0    SW    9.3   11.8    9.2  1002.3  0.00  0.00   0.022   0.000   23.8    49   12.4   23.7   9.05  .0724    117    1    100.0    5 
11/11/18  16:20   11.9   12.0   11.9    82    9.0  12.0   WSW   1.00  15.0   WSW    9.1   11.8    8.9  1002.4  0.00  0.00   0.022   0.000   23.8    49   12.4   23.7   9.05  .0724    117    1    100.0    5 
11/11/18  16:25   11.9   11.9   11.9    82    9.0  12.0   WSW   1.00  15.0   WSW    9.1   11.8    8.9  1002.3  0.00  0.00   0.022   0.000   23.8    48   12.1   23.7   8.95  .0724    115    1    100.0    5 
11/11/18  16:30   12.0   12.0   11.9    82    9.0  11.0   WSW   0.92  14.0    SW    9.4   11.9    9.3  1002.4  0.00  0.00   0.022   0.000   23.8    48   12.1   23.7   8.95  .0724    117    1    100.0    5 
11/11/18  16:35   12.0   12.0   12.0    82    9.0  11.0    SW   0.92  14.0    SW    9.4   11.9    9.3  1002.6  0.00  0.00   0.022   0.000   23.8    48   12.1   23.7   8.95  .0724    116    1    100.0    5 
11/11/18  16:40   12.0   12.1   12.0    82    9.0  12.0   WSW   1.00  13.0   WSW    9.1   11.9    9.0  1002.7  0.00  0.00   0.022   0.000   23.8    48   12.1   23.7   8.95  .0724    117    1    100.0    5 
11/11/18  16:45   12.1   12.1   12.0    82    9.1  10.0    SW   0.83  13.0   WSW    9.8   11.9    9.7  1002.7  0.00  0.00   0.022   0.000   23.7    48   12.1   23.6   8.94  .0725    115    1    100.0    5 
11/11/18  16:50   12.1   12.1   12.1    83    9.3   9.0    SW   0.75  11.0    SW   10.1   11.9   10.0  1002.8  0.00  0.00   0.022   0.000   23.7    48   12.1   23.6   8.94  .0725    116    1    100.0    5 
11/11/18  16:55   11.9   12.1   11.9    83    9.1  10.0    SW   0.83  14.0    SW    9.7   11.8    9.6  1002.9  0.00  0.00   0.022   0.000   23.7    48   12.1   23.6   8.94  .0725    114    1    100.0    5 
11/11/18  17:00   11.9   11.9   11.9    83    9.1  11.0    SW   0.92  13.0    SW    9.3   11.8    9.2  1003.0  0.00  0.00   0.022   0.000   23.7    48   12.0   23.6   8.94  .0725    116    1    100.0    5 
11/11/18  17:05   11.9   12.0   11.9    83    9.1  10.0    SW   0.83  12.0    SW    9.7   11.8    9.6  1003.1  0.00  0.00   0.022   0.000   23.7    48   12.0   23.6   8.94  .0725    117    1    100.0    5 
11/11/18  17:10   12.0   12.0   11.9    83    9.2  11.0   WSW   0.92  14.0   WSW    9.4   11.9    9.3  1003.3  0.00  0.00   0.022   0.000   23.7    48   12.0   23.6   8.94  .0725    117    1    100.0    5 
11/11/18  17:15   11.8   12.0   11.8    82    8.9   9.0   WSW   0.75  13.0   WSW    9.9   11.7    9.8  1003.2  0.00  0.00   0.023   0.000   23.7    48   12.0   23.6   8.94  .0725    117    1    100.0    5 
11/11/18  17:20   11.6   11.8   11.6    82    8.6   6.0   WSW   0.50  10.0   WSW   10.6   11.5   10.5  1003.1  0.00  0.00   0.023   0.000   23.7    48   12.0   23.6   8.94  .0725    115    1    100.0    5 
11/11/18  17:25   11.6   11.7   11.6    83    8.8   7.0   WSW   0.58   9.0   WSW   10.3   11.4   10.2  1003.1  0.00  0.00   0.024   0.000   23.6    48   12.0   23.5   8.94  .0725    117    1    100.0    5 
11/11/18  17:30   11.5   11.6   11.5    83    8.7   7.0   WSW   0.58   9.0   WSW   10.2   11.4   10.1  1003.2  0.00  0.00   0.024   0.000   23.6    48   12.0   23.5   8.94  .0725    116    1    100.0    5 
11/11/18  17:35   11.5   11.5   11.5    83    8.7   6.0   WSW   0.50   7.0   WSW   10.4   11.4   10.3  1003.3  0.00  0.00   0.024   0.000   23.6    48   12.0   23.5   8.94  .0725    112    1     98.2    5 
11/11/18  17:40   11.4   11.5   11.4    84    8.8   6.0   WSW   0.50   8.0   WSW   10.4   11.4   10.3  1003.3  0.00  0.00   0.024   0.000   23.6    48   11.9   23.4   8.94  .0726    115    1    100.0    5 
11/11/18  17:45   11.4   11.4   11.4    84    8.8   4.0   WSW   0.33   6.0   WSW   11.0   11.3   10.9  1003.3  0.00  0.00   0.024   0.000   23.6    48   11.9   23.4   8.94  .0726    118    1    100.0    5 
11/11/18  17:50   11.4   11.4   11.4    84    8.8   4.0   WSW   0.33   7.0   WSW   11.1   11.4   11.0  1003.3  0.00  0.00   0.024   0.000   23.5    48   11.9   23.3   8.94  .0726    117    1    100.0    5 
11/11/18  17:55   11.5   11.5   11.4    84    8.9   6.0   WSW   0.50  10.0   WSW   10.4   11.4   10.4  1003.6  0.00  0.00   0.024   0.000   23.5    48   11.9   23.3   8.94  .0726    115    1    100.0    5 
11/11/18  18:00   11.3   11.5   11.3    84    8.7   7.0   WNW   0.58  12.0   WSW   10.1   11.3   10.0  1003.6  0.00  0.00   0.024   0.000   23.5    48   11.9   23.3   8.94  .0726    117    1    100.0    5 
11/11/18  18:05   11.1   11.3   11.1    83    8.3   4.0   WNW   0.33   7.0   WNW   10.7   11.1   10.6  1003.7  0.00  0.00   0.025   0.000   23.5    48   11.9   23.3   8.94  .0726    115    1    100.0    5 
11/11/18  18:10   11.0   11.1   10.9    83    8.2   5.0   WNW   0.42   8.0   WNW   10.2   10.9   10.2  1003.9  0.00  0.00   0.025   0.000   23.4    48   11.8   23.3   8.93  .0726    113    1     99.1    5 
11/11/18  18:15   10.9   10.9   10.9    82    7.9   6.0   WNW   0.50   9.0   WNW    9.8   10.8    9.7  1004.0  0.00  0.00   0.026   0.000   23.4    48   11.8   23.3   8.93  .0726    117    1    100.0    5 
11/11/18  18:20   10.9   10.9   10.9    82    7.9   4.0   WNW   0.33   7.0   WNW   10.4   10.8   10.3  1004.2  0.00  0.00   0.026   0.000   23.4    48   11.8   23.3   8.93  .0727    113    1     99.1    5 
11/11/18  18:25   10.9   10.9   10.9    82    8.0   4.0   WNW   0.33   8.0   WNW   10.4   10.9   10.4  1004.1  0.00  0.00   0.026   0.000   23.4    48   11.8   23.3   8.93  .0726    116    1    100.0    5 
11/11/18  18:30   11.0   11.0   10.9    83    8.2   3.0   WNW   0.25   5.0   WNW   10.9   10.9   10.9  1004.0  0.00  0.00   0.025   0.000   23.4    48   11.8   23.2   8.93  .0727    115    1    100.0    5 
11/11/18  18:35   11.1   11.1   11.0    83    8.3   2.0   WNW   0.17   4.0   WNW   11.1   11.0   11.0  1004.1  0.00  0.00   0.025   0.000   23.4    48   11.8   23.2   8.93  .0727    117    1    100.0    5 
11/11/18  18:40   11.1   11.1   11.1    83    8.3   2.0   WNW   0.17   4.0   WNW   11.1   11.0   11.0  1004.1  0.00  0.00   0.025   0.000   23.4    48   11.8   23.2   8.93  .0727    115    1    100.0    5 
11/11/18  18:45   11.0   11.1   11.0    83    8.2   1.0   WNW   0.08   3.0   WNW   11.0   10.9   10.9  1004.1  0.00  0.00   0.025   0.000   23.3    48   11.7   23.1   8.93  .0727    116    1    100.0    5 
11/11/18  18:50   10.9   11.0   10.9    83    8.2   2.0   WNW   0.17   4.0   WNW   10.9   10.9   10.9  1004.2  0.00  0.00   0.026   0.000   23.3    48   11.7   23.1   8.93  .0727    116    1    100.0    5 
11/11/18  18:55   10.9   10.9   10.9    83    8.2   1.0   WNW   0.08   3.0   WNW   10.9   10.9   10.9  1004.1  0.00  0.00   0.026   0.000   23.3    48   11.7   23.1   8.93  .0727    116    1    100.0    5 
11/11/18  19:00   10.9   11.0   10.9    83    8.2   2.0   WNW   0.17   7.0   WNW   10.9   10.9   10.9  1004.1  0.00  0.00   0.026   0.000   23.3    48   11.7   23.1   8.93  .0727    117    1    100.0    5 
11/11/18  19:05   11.3   11.3   11.0    84    8.7   7.0   WNW   0.58  14.0    SW   10.1   11.3   10.0  1004.0  0.00  0.00   0.024   0.000   23.3    48   11.7   23.1   8.93  .0727    116    1    100.0    5 
11/11/18  19:10   11.7   11.7   11.3    84    9.1   7.0    SW   0.58  10.0    SW   10.4   11.6   10.4  1004.0  0.00  0.00   0.023   0.000   23.3    48   11.7   23.1   8.93  .0727    114    1    100.0    5 
11/11/18  19:15   11.9   11.9   11.7    84    9.3  11.0   SSW   0.92  14.0   SSW    9.3   11.8    9.2  1004.1  0.00  0.00   0.022   0.000   23.3    48   11.7   23.1   8.93  .0727    117    1    100.0    5 
11/11/18  19:20   12.1   12.1   11.9    84    9.5  12.0   SSW   1.00  16.0   SSW    9.3   12.1    9.2  1004.2  0.00  0.00   0.022   0.000   23.3    48   11.6   23.1   8.93  .0727    115    1    100.0    5 
11/11/18  19:25   12.2   12.2   12.1    84    9.5  12.0   SSW   1.00  15.0   SSW    9.3   12.1    9.3  1004.2  0.00  0.00   0.021   0.000   23.3    48   11.6   23.1   8.93  .0727    115    1    100.0    5 
11/11/18  19:30   12.2   12.2   12.1    83    9.4  14.0   SSW   1.17  17.0   SSW    8.9   12.1    8.8  1004.2  0.00  0.00   0.021   0.000   23.3    48   11.6   23.1   8.93  .0727    117    1    100.0    5 
11/11/18  19:35   12.3   12.3   12.2    83    9.5  12.0   SSW   1.00  16.0   SSW    9.5   12.2    9.4  1004.2  0.00  0.00   0.021   0.000   23.3    48   11.6   23.1   8.93  .0727    115    1    100.0    5 
11/11/18  19:40   12.4   12.4   12.3    83    9.6  12.0   SSW   1.00  15.0   SSW    9.6   12.3    9.4  1004.3  0.00  0.00   0.021   0.000   23.2    48   11.6   22.9   8.93  .0727    116    1    100.0    5 
11/11/18  19:45   12.4   12.4   12.4    83    9.6  12.0   SSW   1.00  15.0   SSW    9.6   12.3    9.4  1004.4  0.00  0.00   0.021   0.000   23.2    48   11.6   22.9   8.93  .0727    116    1    100.0    5 
11/11/18  19:50   12.4   12.4   12.4    83    9.6  12.0   SSW   1.00  17.0   SSW    9.6   12.3    9.5  1004.5  0.00  0.00   0.020   0.000   23.2    48   11.6   22.9   8.93  .0727    115    1    100.0    5 
11/11/18  19:55   12.4   12.4   12.4    82    9.5  12.0   SSW   1.00  15.0    SW    9.6   12.3    9.5  1004.6  0.00  0.00   0.020   0.000   23.2    48   11.6   22.9   8.93  .0728    118    1    100.0    5 
11/11/18  20:00   12.4   12.4   12.4    82    9.5  12.0   SSW   1.00  14.0   SSW    9.6   12.3    9.5  1004.6  0.00  0.00   0.020   0.000   23.2    48   11.5   22.9   8.92  .0728    116    1    100.0    5 
11/11/18  20:05   12.4   12.4   12.4    83    9.6  12.0   SSW   1.00  14.0   SSW    9.6   12.3    9.5  1004.8  0.00  0.00   0.020   0.000   23.2    48   11.5   22.9   8.92  .0728    117    1    100.0    5 
11/11/18  20:10   12.5   12.5   12.4    83    9.7  12.0   SSW   1.00  15.0   SSW    9.7   12.4    9.6  1004.7  0.00  0.00   0.020   0.000   23.2    48   11.5   22.9   8.92  .0728    116    1    100.0    5 
11/11/18  20:15   12.5   12.5   12.5    83    9.7  12.0   SSW   1.00  16.0   SSW    9.7   12.4    9.6  1004.8  0.00  0.00   0.020   0.000   23.2    48   11.5   22.9   8.92  .0728    117    1    100.0    5 
11/11/18  20:20   12.5   12.6   12.5    83    9.7  12.0   SSW   1.00  17.0   SSW    9.7   12.4    9.6  1004.8  0.00  0.00   0.020   0.000   23.1    48   11.5   22.8   8.92  .0728    115    1    100.0    5 
11/11/18  20:25   12.5   12.6   12.5    82    9.5  15.0   SSW   1.25  19.0   SSW    9.1   12.4    8.9  1004.9  0.00  0.00   0.020   0.000   23.1    48   11.5   22.8   8.92  .0728    117    1    100.0    5 
11/11/18  20:30   12.4   12.5   12.4    82    9.5  15.0   SSW   1.25  18.0   SSW    9.0   12.3    8.9  1005.0  0.00  0.00   0.020   0.000   23.1    48   11.5   22.8   8.92  .0728    117    1    100.0    5 
11/11/18  20:35   12.3   12.4   12.3    82    9.3  14.0   SSW   1.17  18.0   SSW    9.1   12.2    8.9  1005.0  0.00  0.00   0.021   0.000   23.1    48   11.5   22.8   8.92  .0728    116    1    100.0    5 
11/11/18  20:40   12.3   12.3   12.3    82    9.3  12.0   SSW   1.00  15.0   SSW    9.5   12.2    9.4  1004.9  0.00  0.00   0.021   0.000   23.1    48   11.4   22.8   8.92  .0728    114    1    100.0    5 
11/11/18  20:45   12.3   12.3   12.3    82    9.3  12.0   SSW   1.00  15.0   SSW    9.5   12.2    9.4  1005.1  0.00  0.00   0.021   0.000   23.1    48   11.4   22.8   8.92  .0728    117    1    100.0    5 
11/11/18  20:50   12.3   12.3   12.3    82    9.3  12.0   SSW   1.00  14.0   SSW    9.5   12.2    9.4  1005.2  0.00  0.00   0.021   0.000   23.1    48   11.4   22.8   8.92  .0728    117    1    100.0    5 
11/11/18  20:55   12.3   12.3   12.3    83    9.5  12.0   SSW   1.00  16.0   SSW    9.5   12.2    9.4  1005.1  0.00  0.00   0.021   0.000   23.0    48   11.4   22.7   8.92  .0729    118    1    100.0    5 
11/11/18  21:00   12.4   12.4   12.3    83    9.6  11.0   SSW   0.92  14.0   SSW    9.9   12.3    9.8  1005.2  0.00  0.00   0.021   0.000   23.0    48   11.4   22.7   8.92  .0729    117    1    100.0    5 
11/11/18  21:05   12.4   12.4   12.3    83    9.6  10.0   SSW   0.83  14.0     S   10.2   12.3   10.1  1005.2  0.00  0.00   0.021   0.000   23.0    48   11.4   22.7   8.92  .0729    116    1    100.0    5 
11/11/18  21:10   12.3   12.4   12.3    83    9.5   9.0   SSW   0.75  13.0   SSW   10.4   12.2   10.3  1005.3  0.00  0.00   0.021   0.000   23.0    48   11.4   22.7   8.92  .0729    117    1    100.0    5 
11/11/18  21:15   12.4   12.4   12.3    83    9.6  10.0   SSW   0.83  13.0   SSW   10.2   12.3   10.1  1005.5  0.00  0.00   0.021   0.000   22.9    48   11.3   22.6   8.92  .0729    114    1    100.0    5 
11/11/18  21:20   12.4   12.4   12.4    83    9.6  11.0   SSW   0.92  14.0   SSW    9.9   12.3    9.8  1005.5  0.00  0.00   0.020   0.000   22.9    48   11.3   22.6   8.92  .0729    116    1    100.0    5 
11/11/18  21:25   11.8   12.4   11.8    83    9.0  15.0    SW   1.25  21.0   SSW    8.2   11.7    8.1  1005.7  0.02  0.14   0.023   0.000   22.9    48   11.3   22.6   8.92  .0729    117    1    100.0    5 
11/11/18  21:30   11.2   11.8   11.2    84    8.6  13.0    SW   1.08  18.0    SW    7.9   11.1    7.9  1005.6  0.01  0.14   0.025   0.000   22.9    48   11.3   22.6   8.92  .0729    116    1    100.0    5 
11/11/18  21:35   10.9   11.2   10.9    84    8.3  12.0   SSW   1.00  16.0   SSW    7.8   10.9    7.8  1005.5  0.01  0.31   0.026   0.000   22.9    48   11.3   22.6   8.91  .0729    116    1    100.0    5 
11/11/18  21:40   10.8   10.9   10.8    84    8.2  14.0     S   1.17  17.0     S    7.4   10.8    7.4  1005.7  0.01  0.14   0.026   0.000   22.8    48   11.2   22.5   8.91  .0730    116    1    100.0    5 
11/11/18  21:45   10.8   10.8   10.8    85    8.4  13.0     S   1.08  16.0     S    7.6   10.8    7.6  1005.5  0.01  0.18   0.026   0.000   22.9    48   11.3   22.6   8.91  .0729    116    1    100.0    5 
11/11/18  21:50   10.7   10.8   10.7    85    8.3  13.0     S   1.08  17.0     S    7.4   10.7    7.4  1005.5  0.01  0.13   0.026   0.000   22.8    48   11.2   22.5   8.91  .0729    117    1    100.0    5 
11/11/18  21:55   10.6   10.7   10.6    85    8.2  10.0     S   0.83  13.0   SSW    8.1   10.6    8.1  1005.6  0.01  0.26   0.027   0.000   22.8    48   11.2   22.5   8.91  .0729    114    1    100.0    5 
11/11/18  22:00   10.7   10.7   10.6    85    8.2  10.0   SSW   0.83  16.0    SW    8.2   10.7    8.2  1005.7  0.03  0.43   0.027   0.000   22.8    48   11.2   22.5   8.91  .0730    117    1    100.0    5 
11/11/18  22:05   10.6   10.7   10.6    85    8.2  11.0   SSW   0.92  15.0     S    7.8   10.6    7.8  1005.8  0.03  0.51   0.027   0.000   22.8    49   11.5   22.4   9.05  .0730    116    1    100.0    5 
11/11/18  22:10   10.8   10.8   10.6    85    8.4   9.0   SSW   0.75  11.0   SSW    8.7   10.8    8.7  1005.7  0.02  0.39   0.026   0.000   22.8    49   11.6   22.5   9.05  .0729    116    1    100.0    5 
11/11/18  22:15   11.2   11.2   10.8    85    8.8   8.0    SW   0.67  13.0   WSW    9.5   11.2    9.5  1005.8  0.02  0.35   0.025   0.000   22.8    49   11.5   22.4   9.05  .0730    112    1     98.2    5 
11/11/18  22:20   11.4   11.4   11.2    85    9.0  10.0   SSW   0.83  15.0   SSW    9.1   11.4    9.0  1005.8  0.01  0.34   0.024   0.000   22.8    49   11.5   22.4   9.05  .0730    116    1    100.0    5 
11/11/18  22:25   11.4   11.4   11.4    85    9.0   9.0   SSW   0.75  12.0   SSW    9.4   11.4    9.3  1005.7  0.00  0.08   0.024   0.000   22.8    49   11.5   22.4   9.05  .0730    117    1    100.0    5 
11/11/18  22:30   11.4   11.4   11.4    85    9.0   6.0   SSW   0.50   8.0   SSW   10.4   11.4   10.3  1005.6  0.00  0.05   0.024   0.000   22.8    49   11.5   22.4   9.05  .0729    117    1    100.0    5 
11/11/18  22:35   11.4   11.4   11.4    85    9.0   6.0   SSW   0.50  11.0     S   10.4   11.4   10.3  1005.6  0.00  0.00   0.024   0.000   22.8    49   11.5   22.4   9.05  .0729    113    1     99.1    5 
11/11/18  22:40   12.0   12.0   11.4    85    9.6  13.0   SSW   1.08  20.0   SSW    8.9   11.9    8.8  1005.6  0.00  0.00   0.022   0.000   22.8    49   11.5   22.4   9.05  .0729    114    1    100.0    5 
11/11/18  22:45   12.3   12.3   12.0    85    9.8  14.0   SSW   1.17  18.0   SSW    9.0   12.2    8.9  1005.6  0.00  0.00   0.021   0.000   22.8    49   11.5   22.4   9.05  .0729    117    1    100.0    5 
11/11/18  22:50   12.3   12.3   12.3    85    9.9  16.0   SSW   1.33  21.0   SSW    8.7   12.3    8.6  1005.6  0.00  0.00   0.021   0.000   22.8    49   11.5   22.4   9.05  .0729    116    1    100.0    5 
11/11/18  22:55   12.5   12.5   12.3    85   10.0  15.0   SSW   1.25  21.0   SSW    9.1   12.4    9.0  1005.6  0.00  0.00   0.020   0.000   22.8    49   11.5   22.4   9.05  .0729    115    1    100.0    5 
11/11/18  23:00   12.5   12.6   12.5    84    9.9  16.0   SSW   1.33  22.0   SSW    8.9   12.4    8.8  1005.7  0.00  0.00   0.020   0.000   22.7    49   11.5   22.4   9.05  .0730    116    1    100.0    5 
11/11/18  23:05   12.6   12.6   12.5    84   10.0  17.0   SSW   1.42  22.0   SSW    8.8   12.6    8.8  1005.7  0.00  0.00   0.020   0.000   22.7    49   11.5   22.4   9.05  .0730    117    1    100.0    5 
11/11/18  23:10   12.7   12.7   12.6    84   10.1  18.0   SSW   1.50  22.0   SSW    8.8   12.7    8.8  1005.8  0.00  0.00   0.019   0.000   22.7    49   11.5   22.4   9.05  .0730    117    1    100.0    5 
11/11/18  23:15   12.8   12.8   12.7    84   10.1  16.0   SSW   1.33  21.0   SSW    9.2   12.7    9.2  1005.9  0.00  0.00   0.019   0.000   22.7    49   11.5   22.4   9.05  .0730    117    1    100.0    5 
11/11/18  23:20   12.7   12.8   12.7    84   10.1  17.0   SSW   1.42  21.0   SSW    9.0   12.7    8.9  1005.8  0.00  0.00   0.019   0.000   22.7    49   11.5   22.4   9.05  .0730    115    1    100.0    5 
11/11/18  23:25   12.7   12.7   12.7    84   10.1  17.0   SSW   1.42  22.0    SW    9.0   12.7    8.9  1005.8  0.00  0.00   0.019   0.000   22.7    49   11.5   22.4   9.05  .0730    116    1    100.0    5 
11/11/18  23:30   12.7   12.7   12.7    84   10.1  17.0   SSW   1.42  21.0   SSW    9.0   12.7    8.9  1005.9  0.00  0.00   0.019   0.000   22.7    49   11.5   22.4   9.05  .0730    116    1    100.0    5 
11/11/18  23:35   12.8   12.8   12.7    84   10.1  16.0   SSW   1.33  20.0   SSW    9.2   12.7    9.2  1005.8  0.00  0.00   0.019   0.000   22.7    49   11.5   22.4   9.05  .0730    117    1    100.0    5 
11/11/18  23:40   12.7   12.8   12.7    84   10.1  15.0   SSW   1.25  19.0   SSW    9.3   12.7    9.3  1005.8  0.00  0.00   0.019   0.000   22.7    49   11.5   22.4   9.05  .0730    117    1    100.0    5 
11/11/18  23:45   12.7   12.8   12.7    84   10.1  16.0   SSW   1.33  21.0   SSW    9.2   12.7    9.1  1005.9  0.00  0.00   0.019   0.000   22.7    50   11.7   22.3   9.25  .0730    117    1    100.0    5 
11/11/18  23:50   12.7   12.7   12.7    84   10.1  17.0   SSW   1.42  20.0   SSW    9.0   12.7    8.9  1005.8  0.00  0.00   0.019   0.000   22.6    50   11.6   22.2   9.25  .0730    114    1    100.0    5 
11/11/18  23:55   12.7   12.7   12.7    84   10.1  17.0   SSW   1.42  21.0   SSW    9.0   12.7    8.9  1005.8  0.00  0.00   0.019   0.000   22.5    50   11.6   22.1   9.25  .0730    116    1    100.0    5 
12/11/18  00:00   12.7   12.8   12.7    84   10.1  18.0   SSW   1.50  22.0   SSW    8.8   12.7    8.8  1005.8  0.00  0.00   0.019   0.000   22.6    50   11.6   22.2   9.25  .0730    116    1    100.0    5 
12/11/18   0:05   12.8   12.8   12.7    84   10.1  16.0   SSW   1.33  20.0   SSW    9.2   12.7    9.2  1005.8  0.00  0.00   0.019   0.000   22.6    50   11.6   22.2   9.25  .0730    115    1    100.0    5 
12/11/18   0:10   12.7   12.7   12.7    84   10.1  17.0   SSW   1.42  20.0   SSW    9.0   12.7    8.9  1005.7  0.00  0.00   0.019   0.000   22.6    50   11.7   22.3   9.25  .0730    117    1    100.0    5 
12/11/18   0:15   12.7   12.8   12.7    84   10.1  16.0   SSW   1.33  21.0   SSW    9.2   12.7    9.1  1005.7  0.00  0.00   0.019   0.000   22.6    50   11.7   22.3   9.25  .0730    116    1    100.0    5 
12/11/18   0:20   12.7   12.8   12.7    84   10.1  17.0   SSW   1.42  21.0    SW    9.0   12.7    8.9  1005.7  0.00  0.00   0.019   0.000   22.6    50   11.7   22.3   9.25  .0730    116    1    100.0    5 
12/11/18   0:25   12.7   12.7   12.7    83    9.9  17.0   SSW   1.42  21.0   SSW    9.0   12.6    8.9  1005.7  0.00  0.00   0.019   0.000   22.7    50   11.7   22.3   9.25  .0730    115    1    100.0    5 
12/11/18   0:30   12.7   12.7   12.7    84   10.1  15.0   SSW   1.25  18.0   SSW    9.3   12.7    9.3  1005.6  0.00  0.00   0.019   0.000   22.7    50   11.7   22.3   9.25  .0730    117    1    100.0    5 
12/11/18   0:35   12.7   12.7   12.7    83    9.9  17.0   SSW   1.42  20.0   SSW    9.0   12.6    8.9  1005.9  0.00  0.00   0.019   0.000   22.7    50   11.7   22.3   9.25  .0730    117    1    100.0    5 
12/11/18   0:40   12.7   12.7   12.7    83    9.9  18.0   SSW   1.50  22.0   SSW    8.8   12.6    8.7  1005.9  0.00  0.00   0.019   0.000   22.7    50   11.7   22.3   9.25  .0730    117    1    100.0    5 
12/11/18   0:45   12.8   12.8   12.7    83   10.0  17.0   SSW   1.42  20.0   SSW    9.1   12.7    8.9  1005.8  0.00  0.00   0.019   0.000   22.7    50   11.7   22.3   9.25  .0730    117    1    100.0    5 
12/11/18   0:50   12.8   12.8   12.8    83   10.0  13.0   SSW   1.08  17.0   SSW    9.8   12.7    9.7  1005.9  0.00  0.00   0.019   0.000   22.7    50   11.7   22.3   9.25  .0730    116    1    100.0    5 
12/11/18   0:55   12.7   12.8   12.7    83    9.9  17.0   SSW   1.42  21.0   SSW    8.9   12.6    8.8  1005.9  0.00  0.00   0.020   0.000   22.7    50   11.7   22.3   9.25  .0730    117    1    100.0    5 
12/11/18   1:00   12.7   12.7   12.7    83    9.9  15.0   SSW   1.25  19.0   SSW    9.3   12.6    9.2  1005.9  0.00  0.00   0.019   0.000   22.7    50   11.7   22.3   9.25  .0730    114    1    100.0    5 
12/11/18   1:05   12.7   12.7   12.7    84   10.1  14.0   SSW   1.17  19.0   SSW    9.5   12.7    9.4  1005.7  0.00  0.00   0.019   0.000   22.7    50   11.8   22.4   9.25  .0729    114    1    100.0    5 
12/11/18   1:10   12.7   12.7   12.7    83    9.9  16.0   SSW   1.33  19.0   SSW    9.2   12.6    9.1  1005.7  0.00  0.00   0.019   0.000   22.7    51   12.1   22.5   9.39  .0729    116    1    100.0    5 
12/11/18   1:15   12.7   12.7   12.7    83    9.9  16.0   SSW   1.33  21.0   SSW    9.2   12.6    9.1  1005.9  0.00  0.00   0.019   0.000   22.7    51   12.1   22.5   9.39  .0729    114    1    100.0    5 
12/11/18   1:20   12.7   12.8   12.7    83    9.9  14.0   SSW   1.17  18.0   SSW    9.5   12.6    9.4  1005.8  0.00  0.00   0.019   0.000   22.7    51   12.1   22.5   9.39  .0729    116    1    100.0    5 
12/11/18   1:25   12.8   12.8   12.7    83   10.0  12.0   SSW   1.00  16.0   SSW   10.0   12.7    9.9  1005.8  0.00  0.00   0.019   0.000   22.7    51   12.1   22.5   9.39  .0729    115    1    100.0    5 
12/11/18   1:30   12.7   12.8   12.7    84   10.1  12.0   SSW   1.00  16.0   SSW    9.9   12.7    9.9  1005.9  0.00  0.00   0.019   0.000   22.7    51   12.1   22.5   9.39  .0729    117    1    100.0    5 
12/11/18   1:35   12.7   12.7   12.7    84   10.0  13.0   SSW   1.08  17.0   SSW    9.7   12.6    9.6  1006.0  0.00  0.00   0.020   0.000   22.7    51   12.1   22.5   9.39  .0730    117    1    100.0    5 
12/11/18   1:40   12.7   12.7   12.6    84   10.0  12.0   SSW   1.00  16.0   SSW    9.9   12.6    9.8  1006.0  0.00  0.00   0.020   0.000   22.7    51   12.1   22.5   9.39  .0730    115    1    100.0    5 
12/11/18   1:45   12.7   12.7   12.7    84   10.0  12.0   SSW   1.00  17.0   SSW    9.9   12.6    9.8  1006.1  0.00  0.00   0.020   0.000   22.7    51   12.1   22.5   9.39  .0730    116    1    100.0    5 
12/11/18   1:50   12.7   12.7   12.7    84   10.0  12.0   SSW   1.00  15.0   SSW    9.9   12.6    9.8  1005.9  0.00  0.00   0.020   0.000   22.7    51   12.0   22.4   9.39  .0730    117    1    100.0    5 
12/11/18   1:55   12.7   12.7   12.7    84   10.0  13.0   SSW   1.08  17.0   SSW    9.7   12.6    9.6  1006.0  0.00  0.00   0.020   0.000   22.7    51   12.1   22.5   9.39  .0730    116    1    100.0    5 
12/11/18   2:00   12.7   12.7   12.7    83    9.9  13.0   SSW   1.08  17.0   SSW    9.7   12.6    9.6  1006.0  0.00  0.00   0.019   0.000   22.7    51   12.1   22.5   9.39  .0729    116    1    100.0    5 
12/11/18   2:05   12.8   12.8   12.7    83   10.0  13.0   SSW   1.08  17.0   SSW    9.8   12.7    9.7  1006.0  0.00  0.00   0.019   0.000   22.8    51   12.1   22.6   9.39  .0729    116    1    100.0    5 
12/11/18   2:10   12.8   12.8   12.8    83   10.0  11.0   SSW   0.92  14.0   SSW   10.3   12.7   10.2  1005.9  0.00  0.00   0.019   0.000   22.8    51   12.2   22.6   9.39  .0729    117    1    100.0    5 
12/11/18   2:15   12.7   12.8   12.7    83    9.9  11.0   SSW   0.92  16.0   SSW   10.3   12.6   10.2  1005.9  0.00  0.00   0.019   0.000   22.8    51   12.2   22.6   9.39  .0729    116    1    100.0    5 
12/11/18   2:20   12.8   12.8   12.7    83   10.0  11.0   SSW   0.92  17.0   SSW   10.3   12.7   10.2  1005.9  0.00  0.00   0.019   0.000   22.9    51   12.2   22.7   9.39  .0729    116    1    100.0    5 
12/11/18   2:25   12.8   12.8   12.7    83   10.0  12.0   SSW   1.00  16.0   SSW   10.0   12.7    9.9  1005.9  0.00  0.00   0.019   0.000   22.9    52   12.5   22.7   9.59  .0729    116    1    100.0    5 
12/11/18   2:30   12.7   12.8   12.7    83    9.9  11.0   SSW   0.92  14.0   SSW   10.3   12.6   10.2  1005.9  0.00  0.00   0.019   0.000   22.9    52   12.5   22.7   9.59  .0729    116    1    100.0    5 
12/11/18   2:35   12.7   12.7   12.7    83    9.9  13.0   SSW   1.08  17.0   SSW    9.7   12.6    9.6  1006.0  0.00  0.00   0.019   0.000   22.9    52   12.5   22.7   9.59  .0729    117    1    100.0    5 
12/11/18   2:40   12.7   12.8   12.7    83    9.9  13.0   SSW   1.08  16.0   SSW    9.7   12.6    9.6  1006.1  0.00  0.00   0.019   0.000   22.9    52   12.6   22.8   9.58  .0729    118    1    100.0    5 
12/11/18   2:45   12.7   12.8   12.7    83    9.9  12.0   SSW   1.00  16.0   SSW    9.9   12.6    9.8  1006.0  0.00  0.00   0.019   0.000   22.9    52   12.6   22.8   9.58  .0729    117    1    100.0    5 
12/11/18   2:50   12.7   12.7   12.7    84   10.1  12.0   SSW   1.00  16.0   SSW    9.9   12.7    9.9  1005.9  0.00  0.00   0.019   0.000   22.9    52   12.6   22.8   9.58  .0729    116    1    100.0    5 
12/11/18   2:55   12.7   12.7   12.7    84   10.1  11.0   SSW   0.92  15.0   SSW   10.3   12.7   10.2  1006.1  0.00  0.00   0.019   0.000   22.9    52   12.6   22.8   9.58  .0729    116    1    100.0    5 
12/11/18   3:00   12.7   12.7   12.7    84   10.1  12.0   SSW   1.00  16.0   SSW    9.9   12.7    9.9  1006.2  0.00  0.00   0.019   0.000   23.0    52   12.6   22.9   9.58  .0729    116    1    100.0    5 
12/11/18   3:05   12.7   12.8   12.7    84   10.1  11.0   SSW   0.92  16.0   SSW   10.3   12.7   10.2  1006.1  0.00  0.00   0.019   0.000   23.0    52   12.6   22.9   9.58  .0729    115    1    100.0    5 
12/11/18   3:10   12.7   12.7   12.7    84   10.1  11.0   SSW   0.92  15.0   SSW   10.3   12.7   10.2  1006.1  0.00  0.00   0.019   0.000   23.0    52   12.6   22.9   9.58  .0728    115    1    100.0    5 
12/11/18   3:15   12.7   12.7   12.7    84   10.0  11.0   SSW   0.92  15.0   SSW   10.2   12.6   10.2  1006.0  0.00  0.00   0.020   0.000   23.0    52   12.6   22.9   9.58  .0728    117    1    100.0    5 
12/11/18   3:20   12.7   12.7   12.7    84   10.0  12.0     S   1.00  18.0   SSW    9.9   12.6    9.8  1006.1  0.00  0.00   0.020   0.000   23.0    52   12.6   22.9   9.58  .0728    117    1    100.0    5 
12/11/18   3:25   12.6   12.7   12.6    84   10.0  12.0   SSW   1.00  16.0   SSW    9.8   12.6    9.8  1006.0  0.00  0.00   0.020   0.000   23.0    52   12.6   22.9   9.58  .0728    116    1    100.0    5 
12/11/18   3:30   12.7   12.7   12.6    85   10.2  10.0   SSW   0.83  13.0   SSW   10.5   12.6   10.4  1006.1  0.00  0.00   0.020   0.000   23.0    52   12.6   22.9   9.58  .0729    117    1    100.0    5 
12/11/18   3:35   12.6   12.7   12.6    85   10.1  11.0     S   0.92  15.0   SSW   10.1   12.5   10.0  1006.2  0.00  0.00   0.020   0.000   23.0    52   12.6   22.9   9.58  .0729    117    1    100.0    5 
12/11/18   3:40   12.6   12.6   12.6    84    9.9  12.0     S   1.00  16.0   SSW    9.8   12.5    9.7  1006.1  0.00  0.00   0.020   0.000   23.0    52   12.6   22.9   9.58  .0729    117    1    100.0    5 
12/11/18   3:45   12.6   12.6   12.6    85   10.1  12.0     S   1.00  15.0   SSW    9.8   12.5    9.7  1006.2  0.00  0.00   0.020   0.000   23.1    52   12.7   22.9   9.58  .0728    118    1    100.0    5 
12/11/18   3:50   12.6   12.6   12.6    85   10.1  11.0     S   0.92  14.0     S   10.1   12.5   10.0  1006.2  0.00  0.00   0.020   0.000   23.1    52   12.7   22.9   9.58  .0728    116    1    100.0    5 
12/11/18   3:55   12.5   12.6   12.5    85   10.0  12.0     S   1.00  15.0     S    9.7   12.4    9.7  1006.2  0.00  0.00   0.020   0.000   23.1    52   12.7   22.9   9.58  .0728    116    1    100.0    5 
12/11/18   4:00   12.5   12.6   12.5    85   10.0  12.0     S   1.00  15.0     S    9.7   12.4    9.7  1006.2  0.00  0.00   0.020   0.000   23.1    52   12.7   23.0   9.58  .0728    117    1    100.0    5 
12/11/18   4:05   12.4   12.5   12.4    85   10.0  12.0     S   1.00  16.0   SSW    9.6   12.4    9.6  1006.1  0.00  0.00   0.020   0.000   23.1    52   12.7   23.0   9.58  .0728    115    1    100.0    5 
12/11/18   4:10   12.4   12.4   12.4    85   10.0  12.0     S   1.00  15.0     S    9.6   12.4    9.6  1006.2  0.00  0.00   0.020   0.000   23.1    52   12.7   23.0   9.58  .0728    116    1    100.0    5 
12/11/18   4:15   12.4   12.4   12.4    85   10.0  12.0     S   1.00  15.0   SSW    9.6   12.4    9.6  1006.2  0.00  0.00   0.020   0.000   23.1    52   12.7   23.0   9.58  .0728    116    1    100.0    5 
12/11/18   4:20   12.4   12.4   12.4    85   10.0  11.0     S   0.92  14.0     S    9.9   12.4    9.9  1006.3  0.00  0.00   0.020   0.000   23.1    52   12.7   23.0   9.58  .0728    117    1    100.0    5 
12/11/18   4:25   12.4   12.4   12.4    85   10.0  13.0     S   1.08  17.0     S    9.4   12.4    9.3  1006.3  0.00  0.00   0.020   0.000   23.1    52   12.7   23.0   9.58  .0728    114    1    100.0    5 
12/11/18   4:30   12.4   12.4   12.4    85   10.0  12.0     S   1.00  15.0     S    9.6   12.4    9.6  1006.3  0.00  0.00   0.020   0.000   23.1    53   13.0   23.0   9.71  .0728    117    1    100.0    5 
12/11/18   4:35   12.4   12.4   12.4    85   10.0  12.0     S   1.00  14.0     S    9.6   12.4    9.6  1006.2  0.00  0.00   0.020   0.000   23.1    53   13.0   23.0   9.71  .0728    116    1    100.0    5 
12/11/18   4:40   12.4   12.4   12.4    85   10.0  13.0     S   1.08  16.0     S    9.4   12.4    9.3  1006.3  0.00  0.00   0.020   0.000   23.1    53   13.0   23.0   9.71  .0728    116    1    100.0    5 
12/11/18   4:45   12.4   12.4   12.4    85    9.9  14.0     S   1.17  17.0     S    9.1   12.3    9.1  1006.5  0.00  0.00   0.021   0.000   23.1    53   13.0   23.0   9.71  .0728    118    1    100.0    5 
12/11/18   4:50   12.4   12.4   12.4    85   10.0  13.0     S   1.08  16.0     S    9.4   12.4    9.3  1006.7  0.00  0.00   0.020   0.000   23.1    52   12.7   22.9   9.58  .0729    117    1    100.0    5 
12/11/18   4:55   12.4   12.4   12.4    85   10.0  13.0     S   1.08  17.0     S    9.4   12.4    9.3  1006.7  0.00  0.00   0.020   0.000   23.1    53   13.0   23.0   9.71  .0729    117    1    100.0    5 
12/11/18   5:00   12.4   12.5   12.4    85   10.0  13.0     S   1.08  16.0     S    9.4   12.4    9.3  1006.7  0.00  0.00   0.020   0.000   23.1    53   13.0   23.0   9.71  .0729    115    1    100.0    5 
12/11/18   5:05   12.5   12.5   12.4    85   10.0  13.0     S   1.08  17.0     S    9.4   12.4    9.4  1006.6  0.00  0.00   0.020   0.000   23.1    53   13.0   23.0   9.71  .0729    117    1    100.0    5 
12/11/18   5:10   12.5   12.5   12.4    85   10.0  15.0     S   1.25  18.0     S    9.1   12.4    9.0  1006.6  0.00  0.00   0.020   0.000   23.1    53   13.0   23.0   9.71  .0728    117    1    100.0    5 
12/11/18   5:15   12.5   12.5   12.4    85   10.0  14.0     S   1.17  17.0     S    9.3   12.4    9.2  1006.5  0.00  0.00   0.020   0.000   23.0    53   12.9   22.9   9.71  .0729    114    1    100.0    5 
12/11/18   5:20   12.5   12.5   12.4    85   10.0  15.0     S   1.25  18.0     S    9.1   12.4    9.0  1006.5  0.00  0.00   0.020   0.000   23.1    53   13.0   23.0   9.71  .0728    116    1    100.0    5 
12/11/18   5:25   12.4   12.5   12.4    85   10.0  15.0     S   1.25  17.0     S    9.0   12.4    8.9  1006.6  0.00  0.00   0.020   0.000   23.0    53   12.9   22.9   9.71  .0729    117    1    100.0    5 
12/11/18   5:30   12.5   12.5   12.4    85   10.0  14.0     S   1.17  17.0   SSW    9.3   12.4    9.2  1006.5  0.00  0.00   0.020   0.000   23.0    53   12.9   22.9   9.71  .0729    115    1    100.0    5 
12/11/18   5:35   12.5   12.5   12.5    85   10.0  15.0     S   1.25  18.0     S    9.1   12.4    9.0  1006.5  0.00  0.00   0.020   0.000   23.0    53   12.9   22.9   9.71  .0729    116    1    100.0    5 
12/11/18   5:40   12.5   12.5   12.5    85   10.0  13.0     S   1.08  16.0     S    9.4   12.4    9.4  1006.6  0.00  0.00   0.020   0.000   23.0    53   12.9   22.9   9.71  .0729    117    1    100.0    5 
12/11/18   5:45   12.4   12.5   12.4    85   10.0  14.0     S   1.17  18.0     S    9.2   12.4    9.1  1006.6  0.00  0.00   0.020   0.000   23.0    53   12.9   22.9   9.71  .0729    117    1    100.0    5 
12/11/18   5:50   12.5   12.5   12.4    85   10.0  14.0     S   1.17  17.0   SSW    9.3   12.4    9.2  1006.6  0.00  0.00   0.020   0.000   23.0    53   12.9   22.9   9.71  .0729    118    1    100.0    5 
12/11/18   5:55   12.4   12.5   12.4    85   10.0  13.0     S   1.08  17.0   SSW    9.4   12.4    9.3  1006.5  0.00  0.00   0.020   0.000   22.9    52   12.6   22.8   9.58  .0729    116    1    100.0    5 
12/11/18   6:00   12.4   12.4   12.4    85   10.0  14.0   SSW   1.17  18.0   SSW    9.2   12.4    9.1  1006.7  0.00  0.00   0.020   0.000   22.9    52   12.6   22.8   9.58  .0729    116    1    100.0    5 
12/11/18   6:05   12.5   12.5   12.4    85   10.0  15.0     S   1.25  18.0   SSW    9.1   12.4    9.0  1006.6  0.00  0.00   0.020   0.000   22.9    52   12.6   22.8   9.58  .0729    116    1    100.0    5 
12/11/18   6:10   12.5   12.6   12.5    85   10.0  13.0     S   1.08  17.0     S    9.4   12.4    9.4  1006.6  0.00  0.00   0.020   0.000   22.9    52   12.6   22.8   9.58  .0729    117    1    100.0    5 
12/11/18   6:15   12.5   12.6   12.5    85   10.0  12.0     S   1.00  18.0   SSW    9.7   12.4    9.7  1006.7  0.00  0.00   0.020   0.000   22.9    52   12.6   22.8   9.58  .0729    117    1    100.0    5 
12/11/18   6:20   12.5   12.6   12.5    85   10.0  12.0   SSW   1.00  16.0   SSW    9.7   12.4    9.7  1006.9  0.00  0.00   0.020   0.000   22.9    52   12.6   22.8   9.58  .0729    117    1    100.0    5 
12/11/18   6:25   12.6   12.6   12.5    85   10.1  12.0   SSW   1.00  16.0   SSW    9.8   12.5    9.7  1006.9  0.00  0.00   0.020   0.000   22.9    52   12.5   22.7   9.59  .0729    116    1    100.0    5 
12/11/18   6:30   12.5   12.6   12.5    85   10.0  11.0   SSW   0.92  15.0   SSW   10.0   12.4    9.9  1007.0  0.00  0.00   0.020   0.000   22.9    52   12.5   22.7   9.59  .0729    110    1     96.5    5 
12/11/18   6:35   12.6   12.6   12.5    85   10.1  12.0   SSW   1.00  16.0   SSW    9.8   12.5    9.7  1007.1  0.00  0.00   0.020   0.000   22.9    52   12.5   22.7   9.59  .0730    113    1     99.1    5 
12/11/18   6:40   12.5   12.6   12.5    85   10.0  13.0     S   1.08  16.0     S    9.4   12.4    9.4  1007.1  0.00  0.00   0.020   0.000   22.9    52   12.5   22.7   9.59  .0730    117    1    100.0    5 
12/11/18   6:45   12.5   12.6   12.5    85   10.0  14.0     S   1.17  20.0   SSW    9.3   12.4    9.2  1007.1  0.00  0.00   0.020   0.000   22.9    52   12.5   22.7   9.59  .0730    115    1    100.0    5 
12/11/18   6:50   12.5   12.5   12.5    85   10.0  16.0     S   1.33  19.0     S    8.9   12.4    8.8  1007.2  0.00  0.00   0.020   0.000   22.9    52   12.5   22.7   9.59  .0730    116    1    100.0    5 
12/11/18   6:55   12.5   12.5   12.5    85   10.0  13.0   SSW   1.08  18.0   SSW    9.4   12.4    9.4  1007.4  0.00  0.00   0.020   0.000   22.8    52   12.5   22.7   9.59  .0730    115    1    100.0    5 
12/11/18   7:00   12.6   12.6   12.5    85   10.1  13.0   SSW   1.08  19.0   SSW    9.5   12.5    9.4  1007.5  0.00  0.00   0.020   0.000   22.8    52   12.5   22.7   9.59  .0730    116    1    100.0    5 
12/11/18   7:05   12.5   12.6   12.5    85   10.0  13.0   SSW   1.08  18.0   SSW    9.4   12.4    9.4  1007.5  0.00  0.00   0.020   0.000   22.8    52   12.5   22.7   9.59  .0730    117    1    100.0    5 
12/11/18   7:10   12.5   12.6   12.5    85   10.0  13.0   SSW   1.08  18.0   SSW    9.4   12.4    9.4  1007.5  0.01  0.00   0.020   0.000   22.8    52   12.5   22.7   9.59  .0730    116    1    100.0    5 
12/11/18   7:15   12.6   12.6   12.5    85   10.1  14.0   SSW   1.17  19.0   SSW    9.3   12.5    9.3  1007.5  0.00  0.00   0.020   0.000   22.8    52   12.5   22.7   9.59  .0730    111    1     97.4    5 
12/11/18   7:20   12.6   12.6   12.6    85   10.2  14.0   SSW   1.17  19.0   SSW    9.4   12.6    9.3  1007.7  0.00  0.00   0.020   0.000   22.8    52   12.5   22.7   9.59  .0730    114    1    100.0    5 
12/11/18   7:25   12.6   12.7   12.6    85   10.2  13.0   SSW   1.08  18.0   SSW    9.6   12.6    9.5  1007.7  0.00  0.00   0.020   0.000   22.8    52   12.5   22.7   9.59  .0730    115    1    100.0    5 
12/11/18   7:30   12.6   12.6   12.6    85   10.1  15.0   SSW   1.25  19.0   SSW    9.1   12.5    9.1  1007.7  0.00  0.00   0.020   0.000   22.8    52   12.4   22.6   9.59  .0730    116    1    100.0    5 
12/11/18   7:35   12.6   12.6   12.6    85   10.2  13.0   SSW   1.08  18.0   SSW    9.6   12.6    9.5  1007.8  0.00  0.00   0.020   0.000   22.8    52   12.4   22.6   9.59  .0730    116    1    100.0    5 
12/11/18   7:40   12.6   12.6   12.6    85   10.1  14.0   SSW   1.17  18.0   SSW    9.3   12.5    9.3  1007.9  0.00  0.00   0.020   0.000   22.8    52   12.4   22.6   9.59  .0731    116    1    100.0    5 
12/11/18   7:45   12.6   12.6   12.6    85   10.1  14.0   SSW   1.17  20.0   SSW    9.3   12.5    9.3  1008.0  0.00  0.00   0.020   0.000   22.8    52   12.4   22.6   9.59  .0731    117    1    100.0    5 
12/11/18   7:50   12.6   12.6   12.6    85   10.1  15.0   SSW   1.25  19.0     S    9.1   12.5    9.1  1008.1  0.00  0.00   0.020   0.000   22.8    52   12.4   22.6   9.59  .0731    117    1    100.0    5 
12/11/18   7:55   12.6   12.6   12.6    85   10.1  13.0   SSW   1.08  17.0   SSW    9.5   12.5    9.4  1008.2  0.00  0.00   0.020   0.000   22.8    52   12.4   22.6   9.59  .0731    118    1    100.0    5 
12/11/18   8:00   12.6   12.6   12.6    85   10.2  13.0   SSW   1.08  18.0   SSW    9.6   12.6    9.5  1008.2  0.00  0.00   0.020   0.000   22.7    52   12.4   22.6   9.59  .0731    117    1    100.0    5 
12/11/18   8:05   12.6   12.6   12.6    85   10.2  14.0   SSW   1.17  18.0   SSW    9.4   12.6    9.3  1008.2  0.00  0.00   0.020   0.000   22.7    52   12.4   22.6   9.59  .0731    117    1    100.0    5 
12/11/18   8:10   12.7   12.7   12.6    85   10.2  14.0   SSW   1.17  18.0   SSW    9.4   12.6    9.4  1008.3  0.00  0.00   0.020   0.000   22.7    52   12.4   22.6   9.59  .0731    117    1    100.0    5 
12/11/18   8:15   12.7   12.7   12.7    85   10.2  14.0   SSW   1.17  19.0    SW    9.4   12.6    9.4  1008.3  0.00  0.00   0.020   0.000   22.7    52   12.4   22.6   9.59  .0731    117    1    100.0    5 
12/11/18   8:20   12.7   12.7   12.7    85   10.2  16.0   SSW   1.33  18.0   SSW    9.1   12.6    9.1  1008.5  0.00  0.00   0.020   0.000   22.7    52   12.4   22.6   9.59  .0731    116    1    100.0    5 
12/11/18   8:25   12.7   12.7   12.7    85   10.2  15.0   SSW   1.25  18.0   SSW    9.3   12.6    9.2  1008.5  0.00  0.00   0.020   0.000   22.7    52   12.4   22.6   9.59  .0731    116    1    100.0    5 
12/11/18   8:30   12.6   12.7   12.6    85   10.2  17.0   SSW   1.42  21.0   SSW    8.8   12.6    8.8  1008.5  0.00  0.00   0.020   0.000   22.7    52   12.4   22.6   9.59  .0731    117    1    100.0    5 
12/11/18   8:35   12.7   12.7   12.6    85   10.2  16.0   SSW   1.33  20.0   SSW    9.1   12.6    9.1  1008.5  0.00  0.00   0.020   0.000   22.7    53   12.6   22.6   9.73  .0731    117    1    100.0    5 
12/11/18   8:40   12.7   12.7   12.7    85   10.3  16.0   SSW   1.33  21.0   SSW    9.2   12.7    9.1  1008.5  0.00  0.00   0.019   0.000   22.8    54   13.0   22.7   9.89  .0731    117    1    100.0    5 
12/11/18   8:45   12.7   12.7   12.7    85   10.3  16.0   SSW   1.33  20.0   SSW    9.2   12.7    9.1  1008.6  0.00  0.00   0.019   0.000   22.8    54   13.0   22.7   9.89  .0731    116    1    100.0    5 
12/11/18   8:50   12.7   12.7   12.7    85   10.2  17.0   SSW   1.42  21.0   SSW    8.9   12.6    8.9  1008.7  0.00  0.00   0.020   0.000   22.8    53   12.7   22.7   9.73  .0731    116    1    100.0    5 
12/11/18   8:55   12.7   12.7   12.7    85   10.2  17.0   SSW   1.42  21.0   SSW    8.9   12.6    8.9  1008.6  0.00  0.00   0.020   0.000   22.8    53   12.7   22.7   9.73  .0731    116    1    100.0    5 
12/11/18   9:00   12.7   12.7   12.7    85   10.3  18.0   SSW   1.50  21.0   SSW    8.8   12.7    8.8  1008.8  0.00  0.00   0.019   0.000   22.8    53   12.7   22.7   9.73  .0731    117    1    100.0    5 
12/11/18   9:05   12.8   12.8   12.7    85   10.4  16.0   SSW   1.33  20.0   SSW    9.3   12.8    9.2  1008.9  0.00  0.00   0.019   0.000   22.8    53   12.7   22.7   9.73  .0731    117    1    100.0    5 
12/11/18   9:10   12.9   12.9   12.8    85   10.4  18.0   SSW   1.50  22.0   SSW    9.0   12.8    8.9  1008.9  0.00  0.00   0.019   0.000   22.8    53   12.7   22.7   9.73  .0731    117    1    100.0    5 
12/11/18   9:15   12.8   12.9   12.8    85   10.4  17.0   SSW   1.42  20.0   SSW    9.1   12.8    9.1  1008.9  0.00  0.00   0.019   0.000   22.8    53   12.7   22.7   9.73  .0731    117    1    100.0    5 
12/11/18   9:20   12.8   12.8   12.8    85   10.4  17.0   SSW   1.42  21.0   SSW    9.1   12.8    9.1  1009.0  0.00  0.00   0.019   0.000   22.8    53   12.7   22.7   9.73  .0731    117    1    100.0    5 
12/11/18   9:25   12.8   12.8   12.8    85   10.3  18.0   SSW   1.50  22.0   SSW    8.9   12.7    8.8  1009.1  0.00  0.00   0.019   0.000   22.8    52   12.5   22.7   9.59  .0731    116    1    100.0    5 
12/11/18   9:30   12.8   12.8   12.8    85   10.3  17.0   SSW   1.42  21.0   SSW    9.1   12.7    9.0  1009.0  0.00  0.00   0.019   0.000   22.8    52   12.5   22.7   9.59  .0731    114    1    100.0    5 
12/11/18   9:35   12.7   12.8   12.7    85   10.3  16.0   SSW   1.33  22.0    SW    9.2   12.7    9.1  1009.1  0.00  0.00   0.019   0.000   22.8    52   12.5   22.7   9.59  .0731    116    1    100.0    5 
12/11/18   9:40   12.7   12.7   12.7    85   10.2  17.0    SW   1.42  22.0   SSW    8.9   12.6    8.9  1009.0  0.00  0.00   0.020   0.000   22.8    52   12.5   22.7   9.59  .0731    116    1    100.0    5 
12/11/18   9:45   12.7   12.7   12.7    85   10.2  18.0   SSW   1.50  22.0   SSW    8.8   12.6    8.7  1008.9  0.00  0.00   0.020   0.000   22.8    52   12.5   22.7   9.59  .0731    114    1    100.0    5 
12/11/18   9:50   12.7   12.7   12.7    85   10.2  18.0   SSW   1.50  22.0    SW    8.8   12.6    8.7  1009.0  0.00  0.00   0.020   0.000   22.8    52   12.5   22.7   9.59  .0731    116    1    100.0    5 
12/11/18   9:55   12.8   12.8   12.7    85   10.3  18.0    SW   1.50  22.0    SW    8.9   12.7    8.8  1009.0  0.00  0.00   0.019   0.000   22.8    52   12.5   22.7   9.59  .0731    115    1    100.0    5 
12/11/18  10:00   12.9   12.9   12.8    85   10.4  19.0   SSW   1.58  24.0   SSW    8.8   12.8    8.8  1009.1  0.00  0.00   0.019   0.000   22.8    52   12.5   22.7   9.59  .0731    117    1    100.0    5 
12/11/18  10:05   12.9   13.0   12.9    85   10.5  17.0   SSW   1.42  21.0   SSW    9.2   12.9    9.2  1009.2  0.00  0.00   0.019   0.000   22.8    52   12.5   22.7   9.59  .0731    117    1    100.0    5 
12/11/18  10:10   12.9   13.0   12.9    85   10.5  20.0   SSW   1.67  24.0   SSW    8.8   12.9    8.7  1009.2  0.00  0.00   0.019   0.000   22.9    52   12.5   22.7   9.59  .0731    116    1    100.0    5 
12/11/18  10:15   12.9   12.9   12.9    84   10.3  20.0   SSW   1.67  25.0    SW    8.8   12.9    8.7  1009.3  0.00  0.00   0.019   0.000   22.9    52   12.5   22.7   9.59  .0731    116    1    100.0    5 
12/11/18  10:20   12.9   12.9   12.9    85   10.5  18.0   SSW   1.50  22.0   SSW    9.1   12.9    9.0  1009.4  0.00  0.00   0.019   0.000   22.9    52   12.6   22.8   9.58  .0731    116    1    100.0    5 
12/11/18  10:25   12.9   12.9   12.9    84   10.2  20.0   SSW   1.67  24.0   SSW    8.7   12.8    8.7  1009.4  0.00  0.00   0.019   0.000   22.9    52   12.6   22.8   9.58  .0731    117    1    100.0    5 
12/11/18  10:30   13.0   13.0   12.9    85   10.5  18.0   SSW   1.50  22.0   SSW    9.1   12.9    9.1  1009.4  0.00  0.00   0.019   0.000   23.0    52   12.6   22.9   9.58  .0731    116    1    100.0    5 
12/11/18  10:35   13.0   13.0   12.9    84   10.4  17.0   SSW   1.42  21.0   SSW    9.3   12.9    9.2  1009.4  0.00  0.00   0.019   0.000   23.1    52   12.7   22.9   9.58  .0731    115    1    100.0    5 
12/11/18  10:40   13.1   13.1   13.0    85   10.6  17.0   SSW   1.42  21.0   SSW    9.3   13.0    9.3  1009.4  0.00  0.00   0.018   0.000   23.1    52   12.7   23.0   9.58  .0731    116    1    100.0    5 
12/11/18  10:45   13.1   13.1   13.1    85   10.6  15.0   SSW   1.25  20.0   SSW    9.7   13.0    9.7  1009.4  0.00  0.00   0.018   0.000   23.1    52   12.7   23.0   9.58  .0731    117    1    100.0    5 
12/11/18  10:50   13.1   13.1   13.1    85   10.6  15.0   SSW   1.25  18.0   SSW    9.8   13.1    9.7  1009.4  0.00  0.00   0.018   0.000   23.2    52   12.8   23.1   9.58  .0730    117    1    100.0    5 
12/11/18  10:55   13.2   13.2   13.1    84   10.5  15.0   SSW   1.25  20.0   SSW    9.8   13.1    9.8  1009.4  0.00  0.00   0.018   0.000   23.2    52   12.8   23.2   9.57  .0730    116    1    100.0    5 
12/11/18  11:00   13.3   13.3   13.2    84   10.6  15.0   SSW   1.25  19.0   SSW    9.9   13.2    9.9  1009.3  0.00  0.00   0.018   0.000   23.3    52   12.9   23.2   9.57  .0730    116    1    100.0    5 
12/11/18  11:05   13.3   13.3   13.3    84   10.6  16.0   SSW   1.33  20.0   SSW    9.8   13.2    9.7  1009.3  0.00  0.00   0.018   0.000   23.3    52   12.9   23.2   9.57  .0730    116    1    100.0    5 
12/11/18  11:10   13.3   13.3   13.2    84   10.6  18.0   SSW   1.50  22.0   SSW    9.4   13.2    9.4  1009.3  0.00  0.00   0.018   0.000   23.3    52   12.9   23.3   9.57  .0730    118    1    100.0    5 
12/11/18  11:15   13.3   13.3   13.3    84   10.6  17.0   SSW   1.42  23.0   SSW    9.6   13.2    9.6  1009.3  0.00  0.00   0.018   0.000   23.4    52   13.0   23.4   9.57  .0729    116    1    100.0    5 
12/11/18  11:20   13.2   13.3   13.2    84   10.6  16.0   SSW   1.33  21.0   SSW    9.7   13.2    9.7  1009.5  0.00  0.00   0.018   0.000   23.4    52   13.0   23.4   9.57  .0730    116    1    100.0    5 
12/11/18  11:25   13.2   13.2   13.2    84   10.6  18.0   SSW   1.50  22.0   SSW    9.4   13.2    9.3  1009.5  0.00  0.00   0.018   0.000   23.5    52   13.1   23.5   9.56  .0729    117    1    100.0    5 
12/11/18  11:30   13.3   13.3   13.2    84   10.7  16.0   SSW   1.33  21.0   SSW    9.8   13.3    9.8  1009.6  0.00  0.00   0.017   0.000   23.5    52   13.1   23.5   9.56  .0730    115    1    100.0    5 
12/11/18  11:35   13.3   13.3   13.3    84   10.7  16.0   SSW   1.33  22.0   SSW    9.8   13.3    9.8  1009.6  0.00  0.00   0.017   0.000   23.6    52   13.1   23.6   9.56  .0729    115    1    100.0    5 
12/11/18  11:40   13.3   13.3   13.3    84   10.7  16.0   SSW   1.33  21.0    SW    9.8   13.3    9.8  1009.7  0.00  0.00   0.017   0.000   23.6    52   13.1   23.6   9.56  .0729    116    1    100.0    5 
12/11/18  11:45   13.4   13.4   13.3    84   10.8  16.0   SSW   1.33  21.0   SSW    9.9   13.4    9.9  1009.7  0.00  0.00   0.017   0.000   23.6    52   13.2   23.7   9.56  .0729    117    1    100.0    5 
12/11/18  11:50   13.3   13.4   13.3    84   10.7  17.0   SSW   1.42  23.0   SSW    9.7   13.3    9.6  1009.6  0.00  0.00   0.017   0.000   23.7    52   13.2   23.7   9.56  .0729    115    1    100.0    5 
12/11/18  11:55   13.5   13.5   13.3    84   10.8  16.0   SSW   1.33  21.0   SSW   10.0   13.4    9.9  1009.6  0.00  0.00   0.017   0.000   23.7    52   13.2   23.7   9.56  .0729    117    1    100.0    5 
12/11/18  12:00   13.4   13.5   13.4    84   10.7  16.0   SSW   1.33  20.0   SSW    9.9   13.3    9.8  1009.7  0.00  0.00   0.017   0.000   23.7    52   13.2   23.7   9.56  .0729    117    1    100.0    5 
12/11/18  12:05   13.3   13.4   13.3    84   10.7  18.0   SSW   1.50  23.0   SSW    9.5   13.3    9.4  1009.7  0.00  0.00   0.017   0.000   23.7    52   13.3   23.8   9.56  .0729    115    1    100.0    5 
12/11/18  12:10   13.2   13.3   13.2    83   10.4  19.0   SSW   1.58  24.0   SSW    9.3   13.1    9.2  1009.7  0.00  0.00   0.018   0.000   23.7    52   13.3   23.8   9.56  .0729    118    1    100.0    5 
12/11/18  12:15   13.3   13.3   13.2    83   10.5  19.0   SSW   1.58  23.0    SW    9.4   13.2    9.3  1009.7  0.00  0.00   0.017   0.000   23.8    52   13.3   23.9   9.55  .0729    116    1    100.0    5 
12/11/18  12:20   13.3   13.4   13.3    83   10.5  18.0   SSW   1.50  23.0   SSW    9.5   13.2    9.4  1009.8  0.00  0.00   0.017   0.000   23.8    51   13.0   23.8   9.35  .0729    115    1    100.0    5 
12/11/18  12:25   13.3   13.3   13.3    83   10.5  18.0   SSW   1.50  23.0   SSW    9.5   13.2    9.4  1009.7  0.00  0.00   0.017   0.000   23.8    52   13.4   23.9   9.55  .0729    117    1    100.0    5 
12/11/18  12:30   13.3   13.3   13.3    83   10.5  17.0   SSW   1.42  24.0   SSW    9.7   13.2    9.6  1009.7  0.00  0.00   0.017   0.000   23.8    52   13.4   23.9   9.55  .0729    117    1    100.0    5 
12/11/18  12:35   13.3   13.4   13.3    83   10.5  18.0   SSW   1.50  25.0   SSW    9.5   13.2    9.4  1009.7  0.00  0.00   0.017   0.000   23.9    51   13.1   24.0   9.35  .0729    116    1    100.0    5 
12/11/18  12:40   13.4   13.4   13.3    83   10.6  17.0   SSW   1.42  24.0   SSW    9.7   13.3    9.6  1009.7  0.00  0.00   0.017   0.000   23.9    51   13.1   24.0   9.35  .0729    116    1    100.0    5 
12/11/18  12:45   13.4   13.4   13.4    83   10.6  18.0   SSW   1.50  23.0   SSW    9.6   13.3    9.4  1009.6  0.00  0.00   0.017   0.000   23.9    51   13.2   24.1   9.35  .0728    110    1     96.5    5 
12/11/18  12:50   13.3   13.4   13.3    83   10.5  20.0   SSW   1.67  25.0   SSW    9.2   13.2    9.1  1009.6  0.00  0.00   0.017   0.000   23.9    51   13.2   24.1   9.35  .0728    115    1    100.0    5 
12/11/18  12:55   13.3   13.3   13.3    82   10.3  19.0   SSW   1.58  26.0   SSW    9.3   13.2    9.2  1009.7  0.00  0.00   0.018   0.000   23.9    51   13.2   24.1   9.35  .0728    115    1    100.0    5 
12/11/18  13:00   13.3   13.3   13.3    82   10.3  20.0   SSW   1.67  26.0   SSW    9.2   13.2    9.1  1009.7  0.00  0.00   0.017   0.000   24.0    51   13.2   24.1   9.35  .0728    117    1    100.0    5 
12/11/18  13:05   13.3   13.4   13.3    83   10.5  19.0   SSW   1.58  24.0   SSW    9.4   13.2    9.3  1009.8  0.00  0.00   0.017   0.000   24.1    51   13.3   24.1   9.35  .0728    116    1    100.0    5 
12/11/18  13:10   13.3   13.4   13.3    82   10.3  20.0   SSW   1.67  25.0   SSW    9.2   13.2    9.1  1009.9  0.00  0.00   0.017   0.000   24.1    51   13.3   24.1   9.35  .0728    117    1    100.0    5 
12/11/18  13:15   13.3   13.3   13.3    82   10.3  20.0   SSW   1.67  25.0   SSW    9.2   13.2    9.1  1009.9  0.00  0.00   0.018   0.000   24.1    51   13.3   24.1   9.35  .0728    118    1    100.0    5 
12/11/18  13:20   13.2   13.3   13.2    83   10.4  20.0   SSW   1.67  26.0   SSW    9.1   13.1    9.0  1009.8  0.00  0.00   0.018   0.000   24.1    51   13.3   24.2   9.35  .0728    109    1     95.6    5 
12/11/18  13:25   13.3   13.3   13.3    83   10.5  20.0   SSW   1.67  25.0    SW    9.2   13.2    9.1  1009.9  0.00  0.00   0.017   0.000   24.1    51   13.3   24.2   9.35  .0728    116    1    100.0    5 
12/11/18  13:30   13.3   13.3   13.3    82   10.3  19.0   SSW   1.58  23.0    SW    9.4   13.2    9.3  1009.9  0.00  0.00   0.017   0.000   24.2    51   13.4   24.2   9.35  .0728    113    1     99.1    5 
12/11/18  13:35   13.3   13.3   13.3    83   10.5  19.0   SSW   1.58  24.0   SSW    9.4   13.2    9.3  1010.0  0.00  0.00   0.017   0.000   24.2    51   13.4   24.2   9.35  .0728    111    1     97.4    5 
12/11/18  13:40   13.3   13.3   13.3    83   10.5  19.0   SSW   1.58  24.0   SSW    9.4   13.2    9.3  1010.1  0.00  0.00   0.017   0.000   24.2    51   13.4   24.2   9.35  .0728    107    1     93.9    5 
12/11/18  13:45   13.3   13.3   13.3    82   10.3  20.0   SSW   1.67  26.0   SSW    9.2   13.2    9.1  1010.0  0.00  0.00   0.018   0.000   24.2    51   13.4   24.2   9.35  .0728    116    1    100.0    5 
12/11/18  13:50   13.3   13.3   13.3    83   10.5  19.0   SSW   1.58  25.0   SSW    9.3   13.2    9.2  1010.0  0.00  0.00   0.018   0.000   24.2    51   13.4   24.3   9.35  .0728    117    1    100.0    5 
12/11/18  13:55   13.3   13.3   13.3    83   10.5  19.0   SSW   1.58  25.0   SSW    9.4   13.2    9.3  1010.0  0.00  0.00   0.017   0.000   24.2    51   13.4   24.3   9.35  .0728    115    1    100.0    5 
12/11/18  14:00   13.3   13.3   13.3    83   10.5  19.0   SSW   1.58  24.0   SSW    9.4   13.2    9.3  1010.0  0.00  0.00   0.017   0.000   24.2    51   13.4   24.3   9.35  .0728    116    1    100.0    5 
12/11/18  14:05   13.4   13.4   13.3    83   10.6  17.0   SSW   1.42  23.0   SSW    9.7   13.3    9.6  1009.9  0.00  0.00   0.017   0.000   24.2    51   13.4   24.3   9.35  .0728    117    1    100.0    5 
12/11/18  14:10   13.3   13.4   13.3    83   10.5  18.0   SSW   1.50  22.0   SSW    9.5   13.2    9.4  1010.1  0.00  0.00   0.017   0.000   24.2    51   13.4   24.3   9.35  .0728    116    1    100.0    5 
12/11/18  14:15   13.3   13.3   13.3    83   10.5  18.0   SSW   1.50  25.0   SSW    9.5   13.2    9.4  1010.0  0.00  0.00   0.017   0.000   24.3    51   13.5   24.3   9.35  .0728    117    1    100.0    5 
12/11/18  14:20   13.2   13.3   13.2    83   10.4  18.0   SSW   1.50  23.0   SSW    9.4   13.1    9.3  1010.1  0.00  0.00   0.018   0.000   24.3    51   13.5   24.3   9.35  .0728    118    1    100.0    5 
12/11/18  14:25   13.3   13.3   13.2    83   10.5  17.0   SSW   1.42  22.0   SSW    9.6   13.2    9.5  1010.1  0.00  0.00   0.018   0.000   24.3    51   13.5   24.3   9.35  .0728    117    1    100.0    5 
12/11/18  14:30   13.3   13.3   13.2    82   10.3  20.0   SSW   1.67  25.0   SSW    9.2   13.2    9.1  1010.1  0.00  0.00   0.018   0.000   24.3    51   13.5   24.3   9.35  .0728    110    1     96.5    5 
12/11/18  14:35   13.3   13.3   13.2    82   10.3  20.0   SSW   1.67  24.0   SSW    9.2   13.2    9.1  1010.1  0.00  0.00   0.018   0.000   24.3    51   13.5   24.3   9.35  .0728     96    1     84.2    5 
12/11/18  14:40   13.4   13.4   13.3    82   10.4  17.0   SSW   1.42  22.0   SSW    9.8   13.3    9.7  1010.2  0.00  0.00   0.017   0.000   24.3    51   13.5   24.3   9.35  .0728    100    1     87.7    5 
12/11/18  14:45   13.2   13.4   13.2    83   10.4  19.0   SSW   1.58  23.0   SSW    9.3   13.1    9.2  1010.2  0.00  0.00   0.018   0.000   24.3    51   13.5   24.3   9.35  .0728    104    1     91.2    5 
12/11/18  14:50   13.2   13.3   13.2    83   10.4  17.0   SSW   1.42  23.0   SSW    9.6   13.1    9.4  1010.2  0.00  0.00   0.018   0.000   24.3    51   13.5   24.3   9.35  .0728    106    1     93.0    5 
12/11/18  14:55   13.2   13.2   13.1    83   10.3  16.0   SSW   1.33  21.0   SSW    9.7   13.1    9.6  1010.2  0.00  0.00   0.018   0.000   24.3    51   13.5   24.3   9.35  .0728    104    1     91.2    5 
12/11/18  15:00   13.1   13.2   13.1    83   10.2  19.0   SSW   1.58  23.0   SSW    9.1   12.9    8.9  1010.2  0.00  0.00   0.018   0.000   24.3    51   13.5   24.3   9.35  .0728    102    1     89.5    5 
12/11/18  15:05   13.1   13.1   13.1    82   10.1  21.0   SSW   1.75  25.0   SSW    8.9   13.0    8.8  1010.3  0.00  0.00   0.018   0.000   24.3    51   13.5   24.3   9.35  .0728    106    1     93.0    5 
12/11/18  15:10   13.2   13.3   13.1    82   10.2  20.0   SSW   1.67  23.0   SSW    9.1   13.1    9.0  1010.3  0.00  0.00   0.018   0.000   24.2    51   13.4   24.3   9.35  .0728    105    1     92.1    5 
12/11/18  15:15   13.3   13.3   13.2    82   10.3  20.0   SSW   1.67  25.0   SSW    9.2   13.2    9.1  1010.3  0.00  0.00   0.017   0.000   24.2    51   13.4   24.3   9.35  .0728    108    1     94.7    5 
12/11/18  15:20   13.3   13.3   13.3    81   10.1  19.0   SSW   1.58  25.0   SSW    9.3   13.1    9.2  1010.3  0.00  0.00   0.018   0.000   24.2    51   13.4   24.3   9.35  .0728    108    1     94.7    5 
12/11/18  15:25   13.2   13.3   13.2    81   10.0  21.0   SSW   1.75  26.0   SSW    9.0   13.1    8.8  1010.4  0.00  0.00   0.018   0.000   24.2    51   13.4   24.3   9.35  .0728    103    1     90.4    5 
12/11/18  15:30   13.3   13.3   13.2    81   10.1  20.0   SSW   1.67  24.0   SSW    9.2   13.1    9.0  1010.5  0.00  0.00   0.018   0.000   24.2    50   13.1   24.2   9.24  .0729     95    1     83.3    5 
12/11/18  15:35   13.3   13.3   13.3    81   10.1  21.0   SSW   1.75  24.0    SW    9.1   13.1    8.9  1010.5  0.00  0.00   0.018   0.000   24.2    50   13.1   24.2   9.24  .0729    105    1     92.1    5 
12/11/18  15:40   13.2   13.3   13.2    81   10.0  20.0   SSW   1.67  26.0   SSW    9.1   13.1    8.9  1010.6  0.00  0.00   0.018   0.000   24.1    50   13.0   24.2   9.24  .0729    107    1     93.9    5 
12/11/18  15:45   13.2   13.2   13.2    82   10.2  20.0   SSW   1.67  24.0   SSW    9.1   13.1    9.0  1010.6  0.00  0.00   0.018   0.000   24.1    50   13.0   24.2   9.24  .0729    113    1     99.1    5 
12/11/18  15:50   13.2   13.2   13.2    82   10.2  21.0   SSW   1.75  26.0   SSW    8.9   13.1    8.8  1010.7  0.00  0.00   0.018   0.000   24.1    50   13.0   24.2   9.24  .0729    115    1    100.0    5 
12/11/18  15:55   13.1   13.2   13.1    82   10.1  20.0   SSW   1.67  26.0   SSW    9.0   13.0    8.9  1010.8  0.00  0.00   0.018   0.000   24.1    50   13.0   24.2   9.24  .0729    116    1    100.0    5 
12/11/18  16:00   13.1   13.1   13.1    82   10.1  20.0   SSW   1.67  25.0   SSW    9.0   13.0    8.9  1010.8  0.00  0.00   0.018   0.000   24.1    50   13.0   24.1   9.24  .0729    117    1    100.0    5 
12/11/18  16:05   13.1   13.1   13.1    82   10.1  20.0   SSW   1.67  24.0   SSW    9.0   13.0    8.9  1010.9  0.00  0.00   0.018   0.000   24.1    50   13.0   24.1   9.24  .0729    117    1    100.0    5 
12/11/18  16:10   13.1   13.1   13.0    81    9.9  22.0   SSW   1.83  26.0   SSW    8.7   12.9    8.6  1010.9  0.00  0.00   0.018   0.000   24.1    50   13.0   24.1   9.24  .0729    116    1    100.0    5 
12/11/18  16:15   13.1   13.1   13.1    81    9.9  20.0   SSW   1.67  25.0   SSW    9.0   12.9    8.8  1011.0  0.00  0.00   0.018   0.000   24.0    50   12.9   24.1   9.25  .0729    115    1    100.0    5 
12/11/18  16:20   13.1   13.1   13.1    81    9.9  19.0   SSW   1.58  23.0   SSW    9.1   12.9    8.9  1011.0  0.00  0.00   0.018   0.000   24.0    50   12.9   24.1   9.25  .0729    117    1    100.0    5 
12/11/18  16:25   13.1   13.1   13.1    81    9.9  20.0   SSW   1.67  23.0   SSW    9.0   12.9    8.8  1011.1  0.00  0.00   0.018   0.000   24.0    50   12.9   24.1   9.25  .0730    118    1    100.0    5 
12/11/18  16:30   13.1   13.1   13.1    81    9.9  20.0   SSW   1.67  23.0   SSW    8.9   12.9    8.8  1011.2  0.00  0.00   0.018   0.000   24.0    50   12.9   24.1   9.25  .0730    117    1    100.0    5 
12/11/18  16:35   13.1   13.1   13.1    81    9.9  20.0   SSW   1.67  24.0   SSW    9.0   12.9    8.8  1011.3  0.00  0.00   0.018   0.000   23.9    50   12.9   24.0   9.25  .0730    117    1    100.0    5 
12/11/18  16:40   13.2   13.2   13.1    81   10.0  18.0   SSW   1.50  22.0   SSW    9.3   13.0    9.2  1011.4  0.00  0.00   0.018   0.000   23.9    50   12.9   24.0   9.25  .0730    117    1    100.0    5 
12/11/18  16:45   13.1   13.2   13.1    82   10.1  17.0   SSW   1.42  22.0   SSW    9.4   13.0    9.3  1011.4  0.00  0.00   0.018   0.000   23.9    50   12.8   23.9   9.25  .0730    117    1    100.0    5 
12/11/18  16:50   13.1   13.1   13.1    82   10.1  19.0   SSW   1.58  22.0   SSW    9.1   13.0    9.0  1011.3  0.00  0.00   0.018   0.000   23.9    50   12.8   23.9   9.25  .0730    117    1    100.0    5 
12/11/18  16:55   13.1   13.1   13.1    82   10.1  18.0   SSW   1.50  21.0   SSW    9.3   13.0    9.2  1011.3  0.00  0.00   0.018   0.000   23.9    50   12.8   23.9   9.25  .0730    116    1    100.0    5 
12/11/18  17:00   13.1   13.2   13.1    82   10.1  17.0   SSW   1.42  22.0   SSW    9.4   13.0    9.3  1011.3  0.00  0.00   0.018   0.000   23.8    50   12.8   23.9   9.25  .0730    115    1    100.0    5 
12/11/18  17:05   13.1   13.1   13.1    82   10.1  17.0   SSW   1.42  21.0   SSW    9.3   12.9    9.2  1011.3  0.00  0.00   0.018   0.000   23.8    50   12.8   23.9   9.25  .0730    116    1    100.0    5 
12/11/18  17:10   13.1   13.1   13.1    81    9.9  19.0   SSW   1.58  24.0   SSW    9.1   12.9    8.9  1011.3  0.00  0.00   0.018   0.000   23.8    50   12.8   23.9   9.25  .0730    117    1    100.0    5 
12/11/18  17:15   13.1   13.1   13.1    82   10.1  16.0   SSW   1.33  20.0   SSW    9.6   13.0    9.5  1011.3  0.00  0.00   0.018   0.000   23.8    50   12.8   23.9   9.25  .0730    115    1    100.0    5 
12/11/18  17:20   13.1   13.1   13.1    82   10.1  18.0   SSW   1.50  22.0   SSW    9.2   12.9    9.1  1011.3  0.00  0.00   0.018   0.000   23.8    50   12.7   23.8   9.25  .0730    117    1    100.0    5 
12/11/18  17:25   13.1   13.1   13.1    82   10.1  17.0   SSW   1.42  22.0   SSW    9.4   13.0    9.3  1011.4  0.00  0.00   0.018   0.000   23.8    50   12.7   23.8   9.25  .0730    117    1    100.0    5 
12/11/18  17:30   13.1   13.1   13.1    82   10.1  14.0   SSW   1.17  19.0    SW    9.9   12.9    9.8  1011.3  0.00  0.00   0.018   0.000   23.7    50   12.7   23.7   9.25  .0731    117    1    100.0    5 
12/11/18  17:35   13.1   13.1   13.0    82   10.1  15.0   SSW   1.25  19.0     S    9.7   12.9    9.6  1011.3  0.00  0.00   0.018   0.000   23.7    50   12.7   23.7   9.25  .0731    116    1    100.0    5 
12/11/18  17:40   13.0   13.1   13.0    82   10.0  15.0   SSW   1.25  19.0   SSW    9.6   12.9    9.5  1011.3  0.00  0.00   0.019   0.000   23.7    50   12.7   23.7   9.25  .0730    117    1    100.0    5 
12/11/18  17:45   13.0   13.0   12.9    82   10.0  16.0   SSW   1.33  21.0    SW    9.4   12.9    9.3  1011.4  0.00  0.00   0.019   0.000   23.7    50   12.6   23.6   9.25  .0731    117    1    100.0    5 
12/11/18  17:50   13.0   13.0   13.0    82   10.0  15.0   SSW   1.25  21.0   SSW    9.6   12.9    9.5  1011.4  0.00  0.00   0.019   0.000   23.7    50   12.6   23.6   9.25  .0731    117    1    100.0    5 
12/11/18  17:55   13.1   13.1   13.0    82   10.1  16.0   SSW   1.33  21.0   SSW    9.6   12.9    9.4  1011.4  0.00  0.00   0.018   0.000   23.7    50   12.6   23.6   9.25  .0731    115    1    100.0    5 
12/11/18  18:00   13.1   13.1   13.1    82   10.1  16.0   SSW   1.33  22.0   SSW    9.6   12.9    9.4  1011.5  0.00  0.00   0.018   0.000   23.7    50   12.6   23.6   9.25  .0731    116    1    100.0    5 
12/11/18  18:05   13.1   13.1   13.1    82   10.1  16.0   SSW   1.33  22.0     S    9.6   13.0    9.5  1011.5  0.00  0.00   0.018   0.000   23.6    50   12.6   23.6   9.25  .0731    117    1    100.0    5 
12/11/18  18:10   13.1   13.1   13.1    82   10.1  17.0   SSW   1.42  24.0   SSW    9.3   12.9    9.2  1011.6  0.00  0.00   0.018   0.000   23.6    50   12.6   23.6   9.25  .0731    115    1    100.0    5 
12/11/18  18:15   13.1   13.1   13.1    82   10.1  18.0   SSW   1.50  23.0   SSW    9.2   12.9    9.1  1011.4  0.00  0.00   0.018   0.000   23.6    50   12.6   23.6   9.25  .0731    117    1    100.0    5 
12/11/18  18:20   13.2   13.2   13.1    82   10.2  19.0   SSW   1.58  26.0   SSW    9.2   13.1    9.1  1011.6  0.00  0.00   0.018   0.000   23.6    50   12.6   23.6   9.25  .0731    116    1    100.0    5 
12/11/18  18:25   13.2   13.2   13.2    82   10.2  18.0   SSW   1.50  24.0   SSW    9.4   13.1    9.3  1011.6  0.00  0.00   0.018   0.000   23.6    50   12.5   23.5   9.25  .0731    116    1    100.0    5 
12/11/18  18:30   13.2   13.2   13.2    82   10.2  17.0   SSW   1.42  23.0   SSW    9.6   13.1    9.4  1011.6  0.00  0.00   0.018   0.000   23.6    50   12.6   23.6   9.25  .0731    118    1    100.0    5 
12/11/18  18:35   13.2   13.2   13.2    82   10.2  18.0   SSW   1.50  23.0   SSW    9.3   13.1    9.2  1011.6  0.00  0.00   0.018   0.000   23.6    50   12.5   23.5   9.25  .0731    117    1    100.0    5 
12/11/18  18:40   13.1   13.2   13.1    82   10.1  17.0   SSW   1.42  21.0   SSW    9.4   13.0    9.3  1011.6  0.00  0.00   0.018   0.000   23.6    50   12.5   23.5   9.25  .0731    117    1    100.0    5 
12/11/18  18:45   13.1   13.2   13.1    82   10.1  16.0   SSW   1.33  20.0   SSW    9.6   13.0    9.5  1011.6  0.00  0.00   0.018   0.000   23.5    50   12.5   23.4   9.25  .0731    116    1    100.0    5 
12/11/18  18:50   13.1   13.1   13.1    82   10.1  16.0   SSW   1.33  20.0     S    9.6   13.0    9.5  1011.5  0.00  0.00   0.018   0.000   23.5    50   12.5   23.4   9.25  .0731    117    1    100.0    5 
12/11/18  18:55   13.0   13.1   13.0    82   10.0  18.0   SSW   1.50  25.0     S    9.1   12.9    9.0  1011.4  0.00  0.00   0.019   0.000   23.5    50   12.5   23.4   9.25  .0731    116    1    100.0    5 
12/11/18  19:00   13.1   13.1   13.0    82   10.1  19.0     S   1.58  23.0   SSW    9.1   12.9    8.9  1011.4  0.00  0.00   0.018   0.000   23.5    50   12.5   23.4   9.25  .0731    113    1     99.1    5 
12/11/18  19:05   13.2   13.2   13.1    82   10.2  17.0   SSW   1.42  22.0     S    9.5   13.1    9.4  1011.6  0.00  0.00   0.018   0.000   23.4    50   12.4   23.3   9.25  .0732    116    1    100.0    5 
12/11/18  19:10   13.1   13.2   13.1    83   10.3  20.0     S   1.67  25.0     S    9.0   13.0    8.9  1011.5  0.00  0.00   0.018   0.000   23.4    50   12.4   23.3   9.25  .0731    116    1    100.0    5 
12/11/18  19:15   13.1   13.1   13.1    82   10.1  21.0     S   1.75  26.0   SSW    8.8   12.9    8.7  1011.5  0.00  0.00   0.018   0.000   23.4    50   12.4   23.3   9.25  .0731    116    1    100.0    5 
12/11/18  19:20   13.0   13.1   13.0    83   10.2  19.0   SSW   1.58  28.0     S    9.0   12.9    8.9  1011.5  0.00  0.00   0.019   0.000   23.4    50   12.4   23.3   9.25  .0731    116    1    100.0    5 
12/11/18  19:25   13.0   13.1   13.0    83   10.2  18.0     S   1.50  25.0     S    9.1   12.9    9.0  1011.4  0.00  0.00   0.019   0.000   23.4    50   12.4   23.2   9.25  .0732    117    1    100.0    5 
12/11/18  19:30   13.0   13.0   12.9    83   10.2  20.0   SSW   1.67  26.0     S    8.8   12.9    8.7  1011.3  0.00  0.00   0.019   0.000   23.4    50   12.4   23.2   9.25  .0732    116    1    100.0    5 
12/11/18  19:35   12.9   13.0   12.9    83   10.1  20.0   SSW   1.67  25.0   SSW    8.8   12.8    8.7  1011.4  0.00  0.00   0.019   0.000   23.3    50   12.3   23.2   9.25  .0732    118    1    100.0    5 
12/11/18  19:40   13.0   13.0   12.9    83   10.2  21.0   SSW   1.75  26.0     S    8.7   12.9    8.6  1011.6  0.00  0.00   0.019   0.000   23.3    50   12.3   23.2   9.25  .0732    117    1    100.0    5 
12/11/18  19:45   13.0   13.1   12.9    82   10.0  24.0   SSW   2.00  30.0   SSW    8.4   12.9    8.3  1011.7  0.00  0.00   0.019   0.000   23.3    50   12.3   23.2   9.25  .0732    117    1    100.0    5 
12/11/18  19:50   13.1   13.1   13.0    83   10.3  24.0   SSW   2.00  29.0   SSW    8.6   13.0    8.4  1011.8  0.00  0.00   0.018   0.000   23.3    50   12.3   23.1   9.25  .0732    116    1    100.0    5 
12/11/18  19:55   13.1   13.2   13.1    83   10.2  19.0    SW   1.58  25.0    SW    9.1   12.9    8.9  1012.0  0.00  0.00   0.018   0.000   23.3    50   12.3   23.1   9.25  .0732    117    1    100.0    5 
12/11/18  20:00   12.8   13.1   12.8    84   10.2  15.0    SW   1.25  21.0    SW    9.4   12.8    9.4  1011.9  0.00  0.00   0.019   0.000   23.2    50   12.2   23.1   9.25  .0733    116    1    100.0    5 
12/11/18  20:05   12.7   12.8   12.7    83    9.9  18.0    SW   1.50  25.0    SW    8.8   12.6    8.7  1012.2  0.00  0.00   0.019   0.000   23.2    50   12.2   23.1   9.25  .0733    116    1    100.0    5 
12/11/18  20:10   12.1   12.7   12.1    83    9.3  15.0   WSW   1.25  20.0    SW    8.6   12.0    8.5  1012.3  0.00  0.00   0.022   0.000   23.2    50   12.2   23.1   9.25  .0733    117    1    100.0    5 
12/11/18  20:15   12.3   12.3   11.9    83    9.5  18.0    SW   1.50  23.0    SW    8.4   12.2    8.3  1011.9  0.01  0.00   0.021   0.000   23.2    50   12.2   23.1   9.25  .0732    117    1    100.0    5 
12/11/18  20:20   12.2   12.4   12.2    82    9.2  18.0   SSW   1.50  24.0    SW    8.2   12.1    8.1  1011.9  0.00  0.00   0.021   0.000   23.2    50   12.2   23.1   9.25  .0732    115    1    100.0    5 
12/11/18  20:25   11.9   12.2   11.9    81    8.8  21.0   SSW   1.75  24.0   SSW    7.6   11.8    7.4  1011.9  0.00  0.00   0.022   0.000   23.2    50   12.2   23.1   9.25  .0732    116    1    100.0    5 
12/11/18  20:30   12.1   12.1   11.9    82    9.1  21.0   SSW   1.75  25.0    SW    7.7   11.9    7.6  1011.9  0.00  0.00   0.022   0.000   23.2    50   12.2   22.9   9.25  .0733    116    1    100.0    5 
12/11/18  20:35   12.0   12.1   11.9    81    8.8  23.0   SSW   1.92  28.0    SW    7.4   11.8    7.2  1011.8  0.00  0.00   0.022   0.000   23.2    50   12.2   22.9   9.25  .0733    115    1    100.0    5 
12/11/18  20:40   12.2   12.2   12.0    82    9.2  23.0   SSW   1.92  28.0   SSW    7.6   12.1    7.5  1012.0  0.00  0.00   0.021   0.000   23.2    50   12.2   22.9   9.25  .0733    117    1    100.0    5 
12/11/18  20:45   12.1   12.2   12.1    82    9.1  24.0   SSW   2.00  31.0    SW    7.3   11.9    7.2  1012.0  0.01  0.00   0.022   0.000   23.2    50   12.2   22.9   9.25  .0733    117    1    100.0    5 
12/11/18  20:50   11.5   12.1   11.5    83    8.7  25.0    SW   2.08  35.0    SW    6.6   11.4    6.5  1012.1  0.00  0.00   0.024   0.000   23.2    50   12.2   22.9   9.25  .0733    116    1    100.0    5 
12/11/18  20:55   11.3   11.5   11.3    83    8.5  21.0   SSW   1.75  28.0   SSW    6.8   11.2    6.7  1012.1  0.02  0.26   0.024   0.000   23.1    50   12.1   22.9   9.25  .0733    116    1    100.0    5 
12/11/18  21:00   11.5   11.5   11.3    84    8.9  20.0    SW   1.67  27.0    SW    7.2   11.4    7.1  1012.1  0.00  0.09   0.024   0.000   23.1    50   12.1   22.9   9.25  .0733    117    1    100.0    5 
12/11/18  21:05   11.4   11.6   11.4    83    8.6  19.0   SSW   1.58  25.0   SSW    7.2   11.3    7.1  1012.1  0.00  0.05   0.024   0.000   23.1    50   12.1   22.9   9.25  .0733    116    1    100.0    5 
12/11/18  21:10   11.6   11.6   11.4    83    8.8  17.0   SSW   1.42  21.0   SSW    7.7   11.4    7.6  1012.1  0.00  0.04   0.024   0.000   23.1    50   12.1   22.8   9.25  .0733    117    1    100.0    5 
12/11/18  21:15   11.6   11.7   11.6    83    8.8  16.0   SSW   1.33  20.0   SSW    7.8   11.4    7.7  1012.2  0.00  0.00   0.024   0.000   23.1    50   12.1   22.8   9.25  .0733    116    1    100.0    5 
12/11/18  21:20   12.2   12.2   11.6    84    9.6  23.0   SSW   1.92  30.0    SW    7.7   12.2    7.6  1012.1  0.01  0.00   0.021   0.000   23.1    50   12.1   22.8   9.25  .0733    117    1    100.0    5 
12/11/18  21:25   11.8   12.2   11.8    81    8.6  25.0    SW   2.08  33.0   SSW    6.9   11.6    6.7  1012.1  0.00  0.00   0.023   0.000   23.1    50   12.1   22.8   9.25  .0733    116    1    100.0    5 
12/11/18  21:30   12.1   12.2   11.8    82    9.1  25.0    SW   2.08  31.0    SW    7.3   12.0    7.2  1012.0  0.00  0.00   0.022   0.000   23.0    50   12.0   22.8   9.25  .0733    116    1    100.0    5 
12/11/18  21:35   11.9   12.1   11.9    79    8.4  22.0    SW   1.83  28.0    SW    7.4   11.7    7.2  1011.9  0.00  0.00   0.022   0.000   23.0    50   12.0   22.8   9.25  .0733    117    1    100.0    5 
12/11/18  21:40   12.0   12.0   11.8    78    8.3  21.0    SW   1.75  25.0    SW    7.6   11.8    7.4  1012.1  0.00  0.00   0.022   0.000   23.0    50   12.0   22.8   9.25  .0733    115    1    100.0    5 
12/11/18  21:45   12.3   12.3   12.0    79    8.7  22.0    SW   1.83  29.0    SW    7.8   12.1    7.7  1012.1  0.00  0.00   0.021   0.000   22.9    50   12.0   22.7   9.25  .0733    118    1    100.0    5 
12/11/18  21:50   12.1   12.3   12.1    79    8.5  22.0   SSW   1.83  27.0   SSW    7.6   11.9    7.4  1012.2  0.00  0.00   0.022   0.000   22.9    50   12.0   22.7   9.25  .0734    117    1    100.0    5 
12/11/18  21:55   12.2   12.2   12.0    80    8.8  21.0    SW   1.75  27.0    SW    7.8   12.0    7.7  1012.2  0.00  0.00   0.021   0.000   22.9    50   12.0   22.7   9.25  .0734    116    1    100.0    5 
12/11/18  22:00   12.4   12.4   12.2    81    9.2  22.0    SW   1.83  26.0    SW    7.9   12.2    7.8  1012.2  0.00  0.00   0.021   0.000   22.9    50   11.9   22.6   9.25  .0734    117    1    100.0    5 
12/11/18  22:05   12.6   12.6   12.4    81    9.4  23.0    SW   1.92  27.0    SW    8.1   12.4    7.9  1012.2  0.00  0.00   0.020   0.000   22.8    50   11.9   22.6   9.25  .0734    116    1    100.0    5 
114538